Time,TemperatureF,DewpointF,PressureIn,WindDirection,WindDirectionDegrees,WindSpeedMPH,WindSpeedGustMPH,Humidity,HourlyPrecipIn,Conditions,Clouds,dailyrainin,SoftwareType,DateUTC
2013-07-31 00:00:00,66.8,14.4,30.03,NW,315,6.0,8.1,13,0.00,,SKC,0.00,VWS V14.00,2013-07-31 07:00:00,
2013-07-31 00:02:00,66.8,14.4,30.03,NNW,338,1.1,6.0,13,0.00,,SKC,0.00,VWS V14.00,2013-07-31 07:02:00,
2013-07-31 00:03:00,66.5,14.1,30.03,WNW,292,0.0,6.0,13,0.00,,SKC,0.00,VWS V14.00,2013-07-31 07:03:00,
2013-07-31 00:04:00,66.5,14.1,30.03,NW,315,2.2,6.0,13,0.00,,SKC,0.00,VWS V14.00,2013-07-31 07:04:00,
2013-07-31 00:05:00,66.5,14.1,30.03,WNW,292,3.8,6.0,13,0.00,,SKC,0.00,VWS V14.00,2013-07-31 07:05:00,
2013-07-31 00:07:00,66.5,14.1,30.03,North,0,3.4,4.3,13,0.00,,SKC,0.00,VWS V14.00,2013-07-31 07:07:00,
2013-07-31 00:08:00,66.5,14.1,30.03,West,270,3.8,4.3,13,0.00,,SKC,0.00,VWS V14.00,2013-07-31 07:08:00,
2013-07-31 00:09:00,66.5,14.1,30.03,West,270,2.7,4.3,13,0.00,,SKC,0.00,VWS V14.00,2013-07-31 07:09:00,
2013-07-31 00:10:00,66.5,14.1,30.03,NNW,338,4.9,4.9,13,0.00,,SKC,0.00,VWS V14.00,2013-07-31 07:10:00,
2013-07-31 00:12:00,66.5,14.1,30.03,WSW,248,2.5,4.9,13,0.00,,SKC,0.00,VWS V14.00,2013-07-31 07:12:00,
2013-07-31 00:13:00,66.6,14.3,30.03,West,270,2.2,5.8,13,0.00,,SKC,0.00,VWS V14.00,2013-07-31 07:13:00,
2013-07-31 00:14:00,66.6,14.3,30.03,West,270,4.9,5.8,13,0.00,,SKC,0.00,VWS V14.00,2013-07-31 07:14:00,
2013-07-31 00:15:00,66.6,14.3,30.03,West,270,4.9,5.8,13,0.00,,SKC,0.00,VWS V14.00,2013-07-31 07:15:00,
2013-07-31 00:17:00,66.5,14.1,30.03,NW,315,5.6,5.8,13,0.00,,SKC,0.00,VWS V14.00,2013-07-31 07:17:00,
2013-07-31 00:18:00,66.8,14.4,30.03,WNW,292,7.2,8.1,13,0.00,,SKC,0.00,VWS V14.00,2013-07-31 07:18:00,
2013-07-31 00:19:00,66.8,14.4,30.03,West,270,6.3,8.1,13,0.00,,SKC,0.00,VWS V14.00,2013-07-31 07:19:00,
2013-07-31 00:20:00,66.8,14.4,30.03,WNW,292,5.4,8.1,13,0.00,,SKC,0.00,VWS V14.00,2013-07-31 07:20:00,
2013-07-31 00:22:00,66.8,14.4,30.03,NNW,338,8.5,8.5,13,0.00,,SKC,0.00,VWS V14.00,2013-07-31 07:22:00,
2013-07-31 00:23:00,66.8,14.4,30.03,NNW,338,5.6,8.5,13,0.00,,SKC,0.00,VWS V14.00,2013-07-31 07:23:00,
2013-07-31 00:24:00,66.8,14.4,30.03,NW,315,3.6,8.5,13,0.00,,SKC,0.00,VWS V14.00,2013-07-31 07:24:00,
2013-07-31 00:25:00,66.8,14.4,30.03,NW,315,3.6,8.5,13,0.00,,SKC,0.00,VWS V14.00,2013-07-31 07:25:00,
2013-07-31 00:27:00,66.6,14.3,30.03,WNW,292,5.6,6.0,13,0.00,,SKC,0.00,VWS V14.00,2013-07-31 07:27:00,
2013-07-31 00:28:00,66.6,14.3,30.03,NW,315,4.0,6.0,13,0.00,,SKC,0.00,VWS V14.00,2013-07-31 07:28:00,
2013-07-31 00:29:00,66.5,14.1,30.03,NW,315,3.6,6.0,13,0.00,,SKC,0.00,VWS V14.00,2013-07-31 07:29:00,
2013-07-31 00:30:00,66.5,14.1,30.03,WNW,292,7.6,7.6,13,0.00,,SKC,0.00,VWS V14.00,2013-07-31 07:30:00,
2013-07-31 00:32:00,66.5,14.1,30.03,NNW,338,6.0,7.6,13,0.00,,SKC,0.00,VWS V14.00,2013-07-31 07:32:00,
2013-07-31 00:34:00,66.5,14.1,30.03,WNW,292,4.0,7.6,13,0.00,,SKC,0.00,VWS V14.00,2013-07-31 07:34:00,
2013-07-31 00:35:00,66.5,14.1,30.03,NNW,338,4.0,7.6,13,0.00,,SKC,0.00,VWS V14.00,2013-07-31 07:35:00,
2013-07-31 00:37:00,66.5,14.1,30.03,NNW,338,7.6,10.7,13,0.00,,SKC,0.00,VWS V14.00,2013-07-31 07:37:00,
2013-07-31 00:39:00,66.6,14.3,30.03,NW,315,6.3,10.7,13,0.00,,SKC,0.00,VWS V14.00,2013-07-31 07:39:00,
2013-07-31 00:40:00,66.6,14.3,30.03,NW,315,6.0,10.7,13,0.00,,SKC,0.00,VWS V14.00,2013-07-31 07:40:00,
2013-07-31 00:43:00,66.6,14.3,30.03,NW,315,9.6,9.8,13,0.00,,SKC,0.00,VWS V14.00,2013-07-31 07:43:00,
2013-07-31 00:44:00,66.6,14.3,30.03,NW,315,6.5,9.8,13,0.00,,SKC,0.00,VWS V14.00,2013-07-31 07:44:00,
2013-07-31 00:45:00,66.6,14.3,30.03,NW,315,6.5,9.8,13,0.00,,SKC,0.00,VWS V14.00,2013-07-31 07:45:00,
2013-07-31 00:46:00,66.6,14.3,30.03,NW,315,6.5,9.8,13,0.00,,SKC,0.00,VWS V14.00,2013-07-31 07:46:00,
2013-07-31 00:48:00,66.6,14.3,30.03,NNW,338,5.8,9.8,13,0.00,,SKC,0.00,VWS V14.00,2013-07-31 07:48:00,
2013-07-31 00:49:00,66.6,14.3,30.03,NW,315,5.4,9.8,13,0.00,,SKC,0.00,VWS V14.00,2013-07-31 07:49:00,
2013-07-31 00:50:00,66.5,14.1,30.03,NW,315,5.8,9.8,13,0.00,,SKC,0.00,VWS V14.00,2013-07-31 07:50:00,
2013-07-31 00:51:00,66.5,14.1,30.03,NW,315,8.7,8.7,13,0.00,,SKC,0.00,VWS V14.00,2013-07-31 07:51:00,
2013-07-31 00:53:00,66.5,14.1,30.03,NNW,338,5.4,8.7,13,0.00,,SKC,0.00,VWS V14.00,2013-07-31 07:53:00,
2013-07-31 00:54:00,66.3,14.0,30.03,NW,315,6.5,8.7,13,0.00,,SKC,0.00,VWS V14.00,2013-07-31 07:54:00,
2013-07-31 00:55:00,66.3,14.0,30.03,WNW,292,5.6,8.7,13,0.00,,SKC,0.00,VWS V14.00,2013-07-31 07:55:00,
2013-07-31 00:56:00,66.1,13.9,30.03,WNW,292,5.8,6.3,13,0.00,,SKC,0.00,VWS V14.00,2013-07-31 07:56:00,
2013-07-31 00:58:00,66.1,13.9,30.03,NW,315,3.8,6.3,13,0.00,,SKC,0.00,VWS V14.00,2013-07-31 07:58:00,
2013-07-31 00:59:00,65.9,13.7,30.03,NNW,338,5.6,6.3,13,0.00,,SKC,0.00,VWS V14.00,2013-07-31 07:59:00,
2013-07-31 01:00:00,65.9,13.7,30.03,NW,315,3.1,6.3,13,0.00,,SKC,0.00,VWS V14.00,2013-07-31 08:00:00,
2013-07-31 01:02:00,65.7,13.6,30.03,NW,315,2.9,2.9,13,0.00,,SKC,0.00,VWS V14.00,2013-07-31 08:02:00,
2013-07-31 01:03:00,65.6,13.4,30.03,NNW,338,4.0,4.0,13,0.00,,SKC,0.00,VWS V14.00,2013-07-31 08:03:00,
2013-07-31 01:04:00,65.4,13.3,30.03,NNW,338,2.0,4.0,13,0.00,,SKC,0.00,VWS V14.00,2013-07-31 08:04:00,
2013-07-31 01:05:00,65.4,13.3,30.03,NW,315,1.6,4.0,13,0.00,,SKC,0.00,VWS V14.00,2013-07-31 08:05:00,
2013-07-31 01:07:00,65.4,13.3,30.03,NNW,338,3.1,3.1,13,0.00,,SKC,0.00,VWS V14.00,2013-07-31 08:07:00,
2013-07-31 01:08:00,65.0,13.0,30.03,NNW,338,2.9,3.1,13,0.00,,SKC,0.00,VWS V14.00,2013-07-31 08:08:00,
2013-07-31 01:09:00,65.0,13.0,30.03,NNW,338,3.1,3.1,13,0.00,,SKC,0.00,VWS V14.00,2013-07-31 08:09:00,
2013-07-31 01:10:00,65.0,13.0,30.03,NNW,338,3.8,3.8,13,0.00,,SKC,0.00,VWS V14.00,2013-07-31 08:10:00,
2013-07-31 01:13:00,64.8,12.9,30.03,NNW,338,2.7,3.4,13,0.00,,SKC,0.00,VWS V14.00,2013-07-31 08:13:00,
2013-07-31 01:14:00,64.7,12.7,30.03,NNW,338,2.9,3.4,13,0.00,,SKC,0.00,VWS V14.00,2013-07-31 08:14:00,
2013-07-31 01:15:00,64.7,12.7,30.03,NW,315,3.8,3.8,13,0.00,,SKC,0.00,VWS V14.00,2013-07-31 08:15:00,
2013-07-31 01:16:00,64.7,12.7,30.03,NW,315,3.8,3.8,13,0.00,,SKC,0.00,VWS V14.00,2013-07-31 08:16:00,
2013-07-31 01:18:00,64.7,12.7,30.03,NW,315,3.8,4.7,13,0.00,,SKC,0.00,VWS V14.00,2013-07-31 08:18:00,
2013-07-31 01:19:00,64.7,12.7,30.03,NNW,338,5.6,5.6,13,0.00,,SKC,0.00,VWS V14.00,2013-07-31 08:19:00,
2013-07-31 01:20:00,64.7,12.7,30.03,NW,315,3.6,5.6,13,0.00,,SKC,0.00,VWS V14.00,2013-07-31 08:20:00,
2013-07-31 01:21:00,64.7,12.7,30.03,NW,315,3.6,3.6,13,0.00,,SKC,0.00,VWS V14.00,2013-07-31 08:21:00,
2013-07-31 01:23:00,64.7,12.7,30.03,North,0,2.9,4.9,13,0.00,,SKC,0.00,VWS V14.00,2013-07-31 08:23:00,
2013-07-31 01:24:00,64.5,12.6,30.03,NW,315,3.8,4.9,13,0.00,,SKC,0.00,VWS V14.00,2013-07-31 08:24:00,
2013-07-31 01:25:00,64.5,12.6,30.03,NW,315,3.8,4.9,13,0.00,,SKC,0.00,VWS V14.00,2013-07-31 08:25:00,
2013-07-31 01:26:00,64.7,12.7,30.03,WNW,292,3.6,5.8,13,0.00,,SKC,0.00,VWS V14.00,2013-07-31 08:26:00,
2013-07-31 01:28:00,64.7,12.7,30.03,NW,315,4.5,5.8,13,0.00,,SKC,0.00,VWS V14.00,2013-07-31 08:28:00,
2013-07-31 01:29:00,64.7,12.7,30.03,NW,315,2.5,5.8,13,0.00,,SKC,0.00,VWS V14.00,2013-07-31 08:29:00,
2013-07-31 01:30:00,64.7,12.7,30.03,NW,315,2.5,5.8,13,0.00,,SKC,0.00,VWS V14.00,2013-07-31 08:30:00,
2013-07-31 01:31:00,64.5,12.6,30.03,NNW,338,3.1,5.4,13,0.00,,SKC,0.00,VWS V14.00,2013-07-31 08:31:00,
2013-07-31 01:32:00,64.5,12.6,30.03,NW,315,5.8,5.8,13,0.00,,SKC,0.00,VWS V14.00,2013-07-31 08:32:00,
2013-07-31 01:33:00,64.5,12.6,30.03,North,0,3.1,5.8,13,0.00,,SKC,0.00,VWS V14.00,2013-07-31 08:33:00,
2013-07-31 01:34:00,64.3,12.4,30.03,NNW,338,2.5,5.8,13,0.00,,SKC,0.00,VWS V14.00,2013-07-31 08:34:00,
2013-07-31 01:35:00,64.3,12.4,30.03,North,0,3.4,5.8,13,0.00,,SKC,0.00,VWS V14.00,2013-07-31 08:35:00,
2013-07-31 01:37:00,64.3,12.4,30.03,NNW,338,4.7,4.7,13,0.00,,SKC,0.00,VWS V14.00,2013-07-31 08:37:00,
2013-07-31 01:38:00,64.1,12.3,30.03,NNW,338,4.7,4.7,13,0.00,,SKC,0.00,VWS V14.00,2013-07-31 08:38:00,
2013-07-31 01:40:00,64.3,12.4,30.03,NNW,338,1.3,4.7,13,0.00,,SKC,0.00,VWS V14.00,2013-07-31 08:40:00,
2013-07-31 01:42:00,64.1,12.3,30.03,NNW,338,4.9,4.9,13,0.00,,SKC,0.00,VWS V14.00,2013-07-31 08:42:00,
2013-07-31 01:44:00,63.9,12.1,30.03,North,0,2.7,4.9,13,0.00,,SKC,0.00,VWS V14.00,2013-07-31 08:44:00,
2013-07-31 01:45:00,63.9,12.1,30.03,NW,315,4.9,5.4,13,0.00,,SKC,0.00,VWS V14.00,2013-07-31 08:45:00,
2013-07-31 01:47:00,63.9,12.1,30.03,NNW,338,2.7,2.7,13,0.00,,SKC,0.00,VWS V14.00,2013-07-31 08:47:00,
2013-07-31 01:49:00,63.9,12.1,30.03,NNW,338,2.7,2.7,13,0.00,,SKC,0.00,VWS V14.00,2013-07-31 08:49:00,
2013-07-31 01:50:00,63.6,11.9,30.03,North,0,3.1,4.3,13,0.00,,SKC,0.00,VWS V14.00,2013-07-31 08:50:00,
2013-07-31 01:52:00,63.6,11.9,30.03,NNW,338,2.0,4.3,13,0.00,,SKC,0.00,VWS V14.00,2013-07-31 08:52:00,
2013-07-31 01:54:00,63.6,11.9,30.03,NNW,338,2.0,4.3,13,0.00,,SKC,0.00,VWS V14.00,2013-07-31 08:54:00,
2013-07-31 01:55:00,63.6,11.9,30.03,NNW,338,1.3,2.0,13,0.00,,SKC,0.00,VWS V14.00,2013-07-31 08:55:00,
2013-07-31 01:57:00,63.2,13.3,30.03,North,0,1.6,2.9,14,0.00,,SKC,0.00,VWS V14.00,2013-07-31 08:57:00,
2013-07-31 01:58:00,63.2,13.3,30.03,NNW,338,2.0,2.9,14,0.00,,SKC,0.00,VWS V14.00,2013-07-31 08:58:00,
2013-07-31 02:00:00,63.2,13.3,30.03,NNW,338,2.0,2.9,14,0.00,,SKC,0.00,VWS V14.00,2013-07-31 09:00:00,
2013-07-31 02:01:00,63.0,13.1,30.03,NNW,338,1.6,1.6,14,0.00,,SKC,0.00,VWS V14.00,2013-07-31 09:01:00,
2013-07-31 02:02:00,62.9,13.0,30.03,NNW,338,0.0,1.6,14,0.00,,SKC,0.00,VWS V14.00,2013-07-31 09:02:00,
2013-07-31 02:03:00,62.9,13.0,30.03,NNW,338,0.0,1.6,14,0.00,,SKC,0.00,VWS V14.00,2013-07-31 09:03:00,
2013-07-31 02:05:00,62.5,12.7,30.03,West,270,0.0,1.6,14,0.00,,SKC,0.00,VWS V14.00,2013-07-31 09:05:00,
2013-07-31 02:06:00,62.5,12.7,30.03,West,270,0.0,0.0,14,0.00,,SKC,0.00,VWS V14.00,2013-07-31 09:06:00,
2013-07-31 02:08:00,62.3,12.5,30.03,West,270,0.0,0.0,14,0.00,,SKC,0.00,VWS V14.00,2013-07-31 09:08:00,
2013-07-31 02:10:00,61.8,12.1,30.03,ENE,68,0.0,0.0,14,0.00,,SKC,0.00,VWS V14.00,2013-07-31 09:10:00,
2013-07-31 02:11:00,61.8,12.1,30.03,ENE,68,0.0,0.0,14,0.00,,SKC,0.00,VWS V14.00,2013-07-31 09:11:00,
2013-07-31 02:12:00,61.6,12.0,30.03,NNE,22,0.0,0.0,14,0.00,,SKC,0.00,VWS V14.00,2013-07-31 09:12:00,
2013-07-31 02:13:00,61.6,12.0,30.03,NNE,22,0.0,0.0,14,0.00,,SKC,0.00,VWS V14.00,2013-07-31 09:13:00,
2013-07-31 02:15:00,61.2,11.7,30.03,NNE,22,0.0,0.0,14,0.00,,SKC,0.00,VWS V14.00,2013-07-31 09:15:00,
2013-07-31 02:16:00,61.2,11.7,30.03,NNE,22,0.0,0.0,14,0.00,,SKC,0.00,VWS V14.00,2013-07-31 09:16:00,
2013-07-31 02:17:00,61.2,11.7,30.03,NNE,22,0.0,0.0,14,0.00,,SKC,0.00,VWS V14.00,2013-07-31 09:17:00,
2013-07-31 02:18:00,61.2,11.7,30.03,NNE,22,0.0,0.0,14,0.00,,SKC,0.00,VWS V14.00,2013-07-31 09:18:00,
2013-07-31 02:19:00,61.1,11.5,30.03,NNE,22,0.0,0.0,14,0.00,,SKC,0.00,VWS V14.00,2013-07-31 09:19:00,
2013-07-31 02:20:00,60.9,11.4,30.03,NNE,22,0.0,0.0,14,0.00,,SKC,0.00,VWS V14.00,2013-07-31 09:20:00,
2013-07-31 02:21:00,60.9,11.4,30.03,NNE,22,0.0,0.0,14,0.00,,SKC,0.00,VWS V14.00,2013-07-31 09:21:00,
2013-07-31 02:22:00,60.9,11.4,30.03,NNE,22,0.0,0.0,14,0.00,,SKC,0.00,VWS V14.00,2013-07-31 09:22:00,
2013-07-31 02:23:00,60.9,11.4,30.03,NNE,22,0.0,0.0,14,0.00,,SKC,0.00,VWS V14.00,2013-07-31 09:23:00,
2013-07-31 02:24:00,60.9,11.4,30.03,NNE,22,0.9,1.1,14,0.00,,SKC,0.00,VWS V14.00,2013-07-31 09:24:00,
2013-07-31 02:25:00,60.9,11.4,30.03,NNE,22,0.0,1.1,14,0.00,,SKC,0.00,VWS V14.00,2013-07-31 09:25:00,
2013-07-31 02:26:00,60.9,11.4,30.03,NNE,22,0.0,0.0,14,0.00,,SKC,0.00,VWS V14.00,2013-07-31 09:26:00,
2013-07-31 02:27:00,60.9,11.4,30.03,NNE,22,0.0,0.0,14,0.00,,SKC,0.00,VWS V14.00,2013-07-31 09:27:00,
2013-07-31 02:28:00,60.9,11.4,30.03,NNE,22,0.0,0.0,14,0.00,,SKC,0.00,VWS V14.00,2013-07-31 09:28:00,
2013-07-31 02:29:00,60.5,11.1,30.03,North,0,0.0,0.0,14,0.00,,SKC,0.00,VWS V14.00,2013-07-31 09:29:00,
2013-07-31 02:30:00,60.3,11.0,30.03,NNE,22,0.0,0.0,14,0.00,,SKC,0.00,VWS V14.00,2013-07-31 09:30:00,
2013-07-31 02:31:00,60.3,11.0,30.03,NNE,22,2.0,2.0,14,0.00,,SKC,0.00,VWS V14.00,2013-07-31 09:31:00,
2013-07-31 02:32:00,60.3,11.0,30.03,NNE,22,2.9,3.1,14,0.00,,SKC,0.00,VWS V14.00,2013-07-31 09:32:00,
2013-07-31 02:33:00,60.3,11.0,30.03,NNE,22,2.5,3.6,14,0.00,,SKC,0.00,VWS V14.00,2013-07-31 09:33:00,
2013-07-31 02:34:00,60.5,11.1,30.03,NE,45,2.7,3.6,14,0.00,,SKC,0.00,VWS V14.00,2013-07-31 09:34:00,
2013-07-31 02:35:00,60.5,11.1,30.03,NNE,22,2.0,3.6,14,0.00,,SKC,0.00,VWS V14.00,2013-07-31 09:35:00,
2013-07-31 02:37:00,60.7,11.2,30.03,NNE,22,1.1,2.7,14,0.00,,SKC,0.00,VWS V14.00,2013-07-31 09:37:00,
2013-07-31 02:38:00,60.5,11.1,30.03,NNE,22,1.6,2.7,14,0.00,,SKC,0.00,VWS V14.00,2013-07-31 09:38:00,
2013-07-31 02:40:00,60.5,11.1,30.03,NNE,22,1.3,2.7,14,0.00,,SKC,0.00,VWS V14.00,2013-07-31 09:40:00,
2013-07-31 02:42:00,60.3,11.0,30.03,NNE,22,0.0,0.0,14,0.00,,SKC,0.00,VWS V14.00,2013-07-31 09:42:00,
2013-07-31 02:44:00,60.3,11.0,30.03,NNW,338,1.3,2.2,14,0.00,,SKC,0.00,VWS V14.00,2013-07-31 09:44:00,
2013-07-31 02:45:00,60.3,11.0,30.03,NNW,338,1.3,2.2,14,0.00,,SKC,0.00,VWS V14.00,2013-07-31 09:45:00,
2013-07-31 02:47:00,60.3,11.0,30.03,NNW,338,0.0,0.0,14,0.00,,SKC,0.00,VWS V14.00,2013-07-31 09:47:00,
2013-07-31 02:48:00,60.2,10.8,30.03,NNW,338,0.0,0.0,14,0.00,,SKC,0.00,VWS V14.00,2013-07-31 09:48:00,
2013-07-31 02:49:00,60.2,10.8,30.03,NNW,338,0.0,0.0,14,0.00,,SKC,0.00,VWS V14.00,2013-07-31 09:49:00,
2013-07-31 02:50:00,60.2,10.8,30.03,North,0,0.0,0.0,14,0.00,,SKC,0.00,VWS V14.00,2013-07-31 09:50:00,
2013-07-31 02:52:00,60.2,10.8,30.03,North,0,0.0,0.0,14,0.00,,SKC,0.00,VWS V14.00,2013-07-31 09:52:00,
2013-07-31 02:53:00,60.3,11.0,30.03,North,0,1.6,2.2,14,0.00,,SKC,0.00,VWS V14.00,2013-07-31 09:53:00,
2013-07-31 02:54:00,60.3,11.0,30.03,North,0,1.6,2.2,14,0.00,,SKC,0.00,VWS V14.00,2013-07-31 09:54:00,
2013-07-31 02:55:00,60.3,11.0,30.03,North,0,1.3,2.2,14,0.00,,SKC,0.00,VWS V14.00,2013-07-31 09:55:00,
2013-07-31 02:57:00,60.2,10.8,30.03,North,0,0.0,0.0,14,0.00,,SKC,0.00,VWS V14.00,2013-07-31 09:57:00,
2013-07-31 02:58:00,60.2,10.8,30.03,North,0,0.0,0.0,14,0.00,,SKC,0.00,VWS V14.00,2013-07-31 09:58:00,
2013-07-31 02:59:00,60.2,10.8,30.03,North,0,0.0,0.0,14,0.00,,SKC,0.00,VWS V14.00,2013-07-31 09:59:00,
2013-07-31 03:00:00,60.2,10.8,30.03,North,0,0.0,0.0,14,0.00,,SKC,0.00,VWS V14.00,2013-07-31 10:00:00,
2013-07-31 03:02:00,60.0,10.7,30.03,North,0,0.0,0.0,14,0.00,,SKC,0.00,VWS V14.00,2013-07-31 10:02:00,
2013-07-31 03:03:00,60.0,10.7,30.03,North,0,0.0,0.0,14,0.00,,SKC,0.00,VWS V14.00,2013-07-31 10:03:00,
2013-07-31 03:04:00,60.2,10.8,30.03,North,0,1.6,2.5,14,0.00,,SKC,0.00,VWS V14.00,2013-07-31 10:04:00,
2013-07-31 03:05:00,60.2,10.8,30.03,North,0,1.3,2.5,14,0.00,,SKC,0.00,VWS V14.00,2013-07-31 10:05:00,
2013-07-31 03:06:00,60.2,10.8,30.03,North,0,2.9,2.9,14,0.00,,SKC,0.00,VWS V14.00,2013-07-31 10:06:00,
2013-07-31 03:07:00,60.5,11.1,30.03,North,0,2.5,2.9,14,0.00,,SKC,0.00,VWS V14.00,2013-07-31 10:07:00,
2013-07-31 03:08:00,60.5,11.1,30.03,North,0,2.0,2.9,14,0.00,,SKC,0.00,VWS V14.00,2013-07-31 10:08:00,
2013-07-31 03:09:00,60.5,11.1,30.03,North,0,3.1,3.1,14,0.00,,SKC,0.00,VWS V14.00,2013-07-31 10:09:00,
2013-07-31 03:10:00,60.5,11.1,30.03,North,0,2.5,3.1,14,0.00,,SKC,0.00,VWS V14.00,2013-07-31 10:10:00,
2013-07-31 03:12:00,60.7,11.2,30.03,North,0,2.2,2.5,14,0.00,,SKC,0.00,VWS V14.00,2013-07-31 10:12:00,
2013-07-31 03:13:00,60.7,11.2,30.03,North,0,2.7,2.7,14,0.00,,SKC,0.00,VWS V14.00,2013-07-31 10:13:00,
2013-07-31 03:14:00,60.5,11.1,30.03,NNE,22,2.0,3.4,14,0.00,,SKC,0.00,VWS V14.00,2013-07-31 10:14:00,
2013-07-31 03:15:00,60.5,11.1,30.03,North,0,2.7,3.4,14,0.00,,SKC,0.00,VWS V14.00,2013-07-31 10:15:00,
2013-07-31 03:17:00,60.3,11.0,30.03,North,0,0.0,2.2,14,0.00,,SKC,0.00,VWS V14.00,2013-07-31 10:17:00,
2013-07-31 03:18:00,60.3,11.0,30.03,North,0,0.0,2.2,14,0.00,,SKC,0.00,VWS V14.00,2013-07-31 10:18:00,
2013-07-31 03:19:00,60.3,11.0,30.03,North,0,2.5,2.5,14,0.00,,SKC,0.00,VWS V14.00,2013-07-31 10:19:00,
2013-07-31 03:20:00,60.2,10.8,30.03,North,0,2.7,2.7,14,0.00,,SKC,0.00,VWS V14.00,2013-07-31 10:20:00,
2013-07-31 03:22:00,60.2,10.8,30.03,NNW,338,3.4,3.4,14,0.00,,SKC,0.00,VWS V14.00,2013-07-31 10:22:00,
2013-07-31 03:23:00,60.2,10.8,30.03,North,0,4.3,4.3,14,0.00,,SKC,0.00,VWS V14.00,2013-07-31 10:23:00,
2013-07-31 03:24:00,60.2,10.8,30.03,NNW,338,3.8,4.3,14,0.00,,SKC,0.00,VWS V14.00,2013-07-31 10:24:00,
2013-07-31 03:25:00,60.7,11.2,30.03,North,0,0.0,4.3,14,0.00,,SKC,0.00,VWS V14.00,2013-07-31 10:25:00,
2013-07-31 03:27:00,60.9,11.4,30.03,NNW,338,3.4,3.8,14,0.00,,SKC,0.00,VWS V14.00,2013-07-31 10:27:00,
2013-07-31 03:28:00,60.9,11.4,30.03,NNW,338,2.5,3.8,14,0.00,,SKC,0.00,VWS V14.00,2013-07-31 10:28:00,
2013-07-31 03:29:00,61.1,11.5,30.03,NNW,338,3.4,3.8,14,0.00,,SKC,0.00,VWS V14.00,2013-07-31 10:29:00,
2013-07-31 03:30:00,61.1,11.5,30.03,WNW,292,2.9,3.8,14,0.00,,SKC,0.00,VWS V14.00,2013-07-31 10:30:00,
2013-07-31 03:33:00,61.1,11.5,30.03,NW,315,3.6,3.6,14,0.00,,SKC,0.00,VWS V14.00,2013-07-31 10:33:00,
2013-07-31 03:34:00,61.2,11.7,30.03,NW,315,2.0,3.6,14,0.00,,SKC,0.00,VWS V14.00,2013-07-31 10:34:00,
2013-07-31 03:35:00,61.1,11.5,30.03,NW,315,2.5,3.6,14,0.00,,SKC,0.00,VWS V14.00,2013-07-31 10:35:00,
2013-07-31 03:38:00,61.1,11.5,30.03,NW,315,2.5,3.6,14,0.00,,SKC,0.00,VWS V14.00,2013-07-31 10:38:00,
2013-07-31 03:39:00,60.9,11.4,30.03,North,0,2.5,3.8,14,0.00,,SKC,0.00,VWS V14.00,2013-07-31 10:39:00,
2013-07-31 03:40:00,60.9,11.4,30.03,North,0,2.5,3.8,14,0.00,,SKC,0.00,VWS V14.00,2013-07-31 10:40:00,
2013-07-31 03:43:00,60.9,11.4,30.03,North,0,0.0,3.4,14,0.00,,SKC,0.00,VWS V14.00,2013-07-31 10:43:00,
2013-07-31 03:44:00,60.9,11.4,30.03,North,0,1.6,3.4,14,0.00,,SKC,0.00,VWS V14.00,2013-07-31 10:44:00,
2013-07-31 03:45:00,60.7,11.2,30.03,NNE,22,3.4,3.4,14,0.00,,SKC,0.00,VWS V14.00,2013-07-31 10:45:00,
2013-07-31 03:46:00,60.7,11.2,30.03,North,0,2.7,3.4,14,0.00,,SKC,0.00,VWS V14.00,2013-07-31 10:46:00,
2013-07-31 03:48:00,60.7,11.2,30.03,North,0,2.5,3.4,14,0.00,,SKC,0.00,VWS V14.00,2013-07-31 10:48:00,
2013-07-31 03:50:00,60.7,11.2,30.03,NNE,22,2.5,3.4,14,0.00,,SKC,0.00,VWS V14.00,2013-07-31 10:50:00,
2013-07-31 03:51:00,60.7,11.2,30.03,North,0,2.0,2.5,14,0.00,,SKC,0.00,VWS V14.00,2013-07-31 10:51:00,
2013-07-31 03:53:00,59.4,11.8,30.03,North,0,0.0,2.5,15,0.00,,SKC,0.00,VWS V14.00,2013-07-31 10:53:00,
2013-07-31 03:55:00,59.4,11.8,30.03,North,0,0.0,2.5,15,0.00,,SKC,0.00,VWS V14.00,2013-07-31 10:55:00,
2013-07-31 03:56:00,59.1,11.5,30.03,North,0,1.6,1.6,15,0.00,,SKC,0.00,VWS V14.00,2013-07-31 10:56:00,
2013-07-31 03:59:00,59.1,11.5,30.03,NNE,22,1.6,1.6,15,0.00,,SKC,0.00,VWS V14.00,2013-07-31 10:59:00,
2013-07-31 04:00:00,59.1,11.5,30.03,NNE,22,1.6,1.6,15,0.00,,SKC,0.00,VWS V14.00,2013-07-31 11:00:00,
2013-07-31 04:01:00,58.7,11.2,30.03,NNE,22,0.0,1.6,15,0.00,,SKC,0.00,VWS V14.00,2013-07-31 11:01:00,
2013-07-31 04:02:00,58.7,11.2,30.03,South,180,0.0,1.6,15,0.00,,SKC,0.00,VWS V14.00,2013-07-31 11:02:00,
2013-07-31 04:04:00,58.5,11.1,30.03,South,180,0.0,1.6,15,0.00,,SKC,0.00,VWS V14.00,2013-07-31 11:04:00,
2013-07-31 04:05:00,58.5,11.1,30.03,South,180,0.0,1.6,15,0.00,,SKC,0.00,VWS V14.00,2013-07-31 11:05:00,
2013-07-31 04:06:00,58.5,11.1,30.03,South,180,0.0,1.6,15,0.00,,SKC,0.00,VWS V14.00,2013-07-31 11:06:00,
2013-07-31 04:07:00,58.5,11.1,30.03,WSW,248,2.7,2.7,15,0.00,,SKC,0.00,VWS V14.00,2013-07-31 11:07:00,
2013-07-31 04:09:00,58.0,10.6,30.03,WSW,248,3.4,3.4,15,0.00,,SKC,0.00,VWS V14.00,2013-07-31 11:09:00,
2013-07-31 04:10:00,57.6,10.3,30.03,WSW,248,0.0,3.4,15,0.00,,SKC,0.00,VWS V14.00,2013-07-31 11:10:00,
2013-07-31 04:11:00,57.6,10.3,30.03,WSW,248,0.0,3.4,15,0.00,,SKC,0.00,VWS V14.00,2013-07-31 11:11:00,
2013-07-31 04:12:00,57.6,10.3,30.03,WSW,248,0.0,3.4,15,0.00,,SKC,0.00,VWS V14.00,2013-07-31 11:12:00,
2013-07-31 04:14:00,57.6,10.3,30.03,WSW,248,0.0,3.4,15,0.00,,SKC,0.00,VWS V14.00,2013-07-31 11:14:00,
2013-07-31 04:15:00,57.6,10.3,30.03,WSW,248,0.0,3.4,15,0.00,,SKC,0.00,VWS V14.00,2013-07-31 11:15:00,
2013-07-31 04:16:00,57.6,10.3,30.03,WSW,248,0.0,0.0,15,0.00,,SKC,0.00,VWS V14.00,2013-07-31 11:16:00,
2013-07-31 04:18:00,57.6,10.3,30.03,WSW,248,0.0,0.0,15,0.00,,SKC,0.00,VWS V14.00,2013-07-31 11:18:00,
2013-07-31 04:19:00,56.9,9.8,30.03,WSW,248,0.0,0.0,15,0.00,,SKC,0.00,VWS V14.00,2013-07-31 11:19:00,
2013-07-31 04:21:00,56.9,9.8,30.03,WSW,248,0.0,0.0,15,0.00,,SKC,0.00,VWS V14.00,2013-07-31 11:21:00,
2013-07-31 04:23:00,56.9,9.8,30.03,WSW,248,0.0,0.0,15,0.00,,SKC,0.00,VWS V14.00,2013-07-31 11:23:00,
2013-07-31 04:24:00,56.6,9.5,30.03,SE,135,0.0,1.3,15,0.00,,SKC,0.00,VWS V14.00,2013-07-31 11:24:00,
2013-07-31 04:25:00,56.2,9.2,30.03,SE,135,0.0,1.3,15,0.00,,SKC,0.00,VWS V14.00,2013-07-31 11:25:00,
2013-07-31 04:26:00,56.2,9.2,30.03,SE,135,0.0,0.0,15,0.00,,SKC,0.00,VWS V14.00,2013-07-31 11:26:00,
2013-07-31 04:29:00,55.8,8.9,30.03,SE,135,0.0,0.0,15,0.00,,SKC,0.00,VWS V14.00,2013-07-31 11:29:00,
2013-07-31 04:30:00,55.5,8.6,30.03,ENE,68,0.0,0.0,15,0.00,,SKC,0.00,VWS V14.00,2013-07-31 11:30:00,
2013-07-31 04:31:00,55.5,8.6,30.03,ENE,68,0.0,0.0,15,0.00,,SKC,0.00,VWS V14.00,2013-07-31 11:31:00,
2013-07-31 04:32:00,55.5,8.6,30.03,ENE,68,0.0,0.0,15,0.00,,SKC,0.00,VWS V14.00,2013-07-31 11:32:00,
2013-07-31 04:33:00,55.3,8.5,30.03,East,90,0.0,0.0,15,0.00,,SKC,0.00,VWS V14.00,2013-07-31 11:33:00,
2013-07-31 04:34:00,55.1,8.3,30.03,East,90,0.0,0.0,15,0.00,,SKC,0.00,VWS V14.00,2013-07-31 11:34:00,
2013-07-31 04:35:00,55.1,8.3,30.03,East,90,0.0,0.0,15,0.00,,SKC,0.00,VWS V14.00,2013-07-31 11:35:00,
2013-07-31 04:37:00,54.9,8.2,30.03,West,270,0.0,0.0,15,0.00,,SKC,0.00,VWS V14.00,2013-07-31 11:37:00,
2013-07-31 04:39:00,54.8,8.0,30.03,West,270,0.0,0.0,15,0.00,,SKC,0.00,VWS V14.00,2013-07-31 11:39:00,
2013-07-31 04:40:00,54.4,7.7,30.03,West,270,0.0,0.0,15,0.00,,SKC,0.00,VWS V14.00,2013-07-31 11:40:00,
2013-07-31 04:42:00,54.4,7.7,30.03,SSE,158,0.0,0.0,15,0.00,,SKC,0.00,VWS V14.00,2013-07-31 11:42:00,
2013-07-31 04:44:00,54.4,7.7,30.03,SE,135,1.1,1.3,15,0.00,,SKC,0.00,VWS V14.00,2013-07-31 11:44:00,
2013-07-31 04:45:00,54.2,9.0,30.03,SSW,202,0.0,1.3,16,0.00,,SKC,0.00,VWS V14.00,2013-07-31 11:45:00,
2013-07-31 04:47:00,54.2,9.0,30.03,SSW,202,0.0,0.0,16,0.00,,SKC,0.00,VWS V14.00,2013-07-31 11:47:00,
2013-07-31 04:49:00,53.9,8.7,30.03,SSW,202,0.0,0.0,16,0.00,,SKC,0.00,VWS V14.00,2013-07-31 11:49:00,
2013-07-31 04:50:00,53.7,8.6,30.03,SSW,202,0.0,0.0,16,0.00,,SKC,0.00,VWS V14.00,2013-07-31 11:50:00,
2013-07-31 04:52:00,53.7,8.6,30.03,SSW,202,0.0,0.0,16,0.00,,SKC,0.00,VWS V14.00,2013-07-31 11:52:00,
2013-07-31 04:54:00,53.7,8.6,30.03,SSW,202,0.0,0.0,16,0.00,,SKC,0.00,VWS V14.00,2013-07-31 11:54:00,
2013-07-31 04:55:00,53.0,8.0,30.03,SSW,202,0.0,0.0,16,0.00,,SKC,0.00,VWS V14.00,2013-07-31 11:55:00,
2013-07-31 04:57:00,53.0,8.0,30.03,WSW,248,2.7,2.7,16,0.00,,SKC,0.00,VWS V14.00,2013-07-31 11:57:00,
2013-07-31 04:58:00,52.6,7.7,30.03,WSW,248,2.9,2.9,16,0.00,,SKC,0.00,VWS V14.00,2013-07-31 11:58:00,
2013-07-31 04:59:00,52.6,7.7,30.03,West,270,1.3,2.9,16,0.00,,SKC,0.00,VWS V14.00,2013-07-31 11:59:00,
2013-07-31 05:00:00,52.6,7.7,30.03,West,270,0.0,2.9,16,0.00,,SKC,0.00,VWS V14.00,2013-07-31 12:00:00,
2013-07-31 05:02:00,52.4,7.6,30.03,West,270,0.0,0.0,16,0.00,,SKC,0.00,VWS V14.00,2013-07-31 12:02:00,
2013-07-31 05:03:00,52.2,7.4,30.03,West,270,0.0,0.0,16,0.00,,SKC,0.00,VWS V14.00,2013-07-31 12:03:00,
2013-07-31 05:04:00,52.2,7.4,30.03,West,270,0.0,0.0,16,0.00,,SKC,0.00,VWS V14.00,2013-07-31 12:04:00,
2013-07-31 05:05:00,52.2,7.4,30.03,West,270,0.0,0.0,16,0.00,,SKC,0.00,VWS V14.00,2013-07-31 12:05:00,
2013-07-31 05:07:00,52.2,7.4,30.03,West,270,0.0,2.0,16,0.00,,SKC,0.00,VWS V14.00,2013-07-31 12:07:00,
2013-07-31 05:08:00,52.1,7.3,30.03,West,270,0.0,2.0,16,0.00,,SKC,0.00,VWS V14.00,2013-07-31 12:08:00,
2013-07-31 05:09:00,52.1,7.3,30.03,West,270,0.0,2.0,16,0.00,,SKC,0.00,VWS V14.00,2013-07-31 12:09:00,
2013-07-31 05:10:00,52.1,7.3,30.03,West,270,0.0,2.0,16,0.00,,SKC,0.00,VWS V14.00,2013-07-31 12:10:00,
2013-07-31 05:12:00,51.9,7.1,30.03,West,270,1.1,2.0,16,0.00,,SKC,0.00,VWS V14.00,2013-07-31 12:12:00,
2013-07-31 05:13:00,51.9,7.1,30.03,West,270,0.9,2.0,16,0.00,,SKC,0.00,VWS V14.00,2013-07-31 12:13:00,
2013-07-31 05:14:00,51.7,7.0,30.03,West,270,0.0,2.0,16,0.00,,SKC,0.00,VWS V14.00,2013-07-31 12:14:00,
2013-07-31 05:15:00,51.7,7.0,30.03,West,270,0.0,2.0,16,0.00,,SKC,0.00,VWS V14.00,2013-07-31 12:15:00,
2013-07-31 05:18:00,51.5,6.8,30.03,West,270,0.0,0.0,16,0.00,,SKC,0.00,VWS V14.00,2013-07-31 12:18:00,
2013-07-31 05:19:00,51.3,6.7,30.03,West,270,0.0,0.0,16,0.00,,SKC,0.00,VWS V14.00,2013-07-31 12:19:00,
2013-07-31 05:20:00,51.3,6.7,30.03,West,270,0.0,0.0,16,0.00,,SKC,0.00,VWS V14.00,2013-07-31 12:20:00,
2013-07-31 05:21:00,51.3,6.7,30.03,West,270,0.0,0.0,16,0.00,,SKC,0.00,VWS V14.00,2013-07-31 12:21:00,
2013-07-31 05:23:00,51.3,6.7,30.03,West,270,0.0,0.0,16,0.00,,SKC,0.00,VWS V14.00,2013-07-31 12:23:00,
2013-07-31 05:24:00,51.3,6.7,30.03,West,270,2.5,2.5,16,0.00,,SKC,0.00,VWS V14.00,2013-07-31 12:24:00,
2013-07-31 05:25:00,51.3,6.7,30.03,West,270,2.0,2.7,16,0.00,,SKC,0.00,VWS V14.00,2013-07-31 12:25:00,
2013-07-31 05:26:00,51.3,6.7,30.03,WSW,248,0.0,2.0,16,0.00,,SKC,0.00,VWS V14.00,2013-07-31 12:26:00,
2013-07-31 05:28:00,51.5,6.8,30.03,WSW,248,0.0,2.0,16,0.00,,SKC,0.00,VWS V14.00,2013-07-31 12:28:00,
2013-07-31 05:30:00,51.5,6.8,30.03,WSW,248,0.9,2.0,16,0.00,,SKC,0.00,VWS V14.00,2013-07-31 12:30:00,
2013-07-31 05:31:00,51.3,6.7,30.03,WSW,248,0.0,0.0,16,0.00,,SKC,0.00,VWS V14.00,2013-07-31 12:31:00,
2013-07-31 05:33:00,51.2,6.5,30.03,WSW,248,0.0,0.0,16,0.00,,SKC,0.00,VWS V14.00,2013-07-31 12:33:00,
2013-07-31 05:34:00,51.2,6.5,30.03,WSW,248,0.0,0.0,16,0.00,,SKC,0.00,VWS V14.00,2013-07-31 12:34:00,
2013-07-31 05:35:00,51.2,6.5,30.03,WSW,248,0.0,0.0,16,0.00,,SKC,0.00,VWS V14.00,2013-07-31 12:35:00,
2013-07-31 05:36:00,51.2,6.5,30.03,WSW,248,0.0,0.0,16,0.00,,SKC,0.00,VWS V14.00,2013-07-31 12:36:00,
2013-07-31 05:37:00,51.2,6.5,30.03,WSW,248,0.0,0.0,16,0.00,,SKC,0.00,VWS V14.00,2013-07-31 12:37:00,
2013-07-31 05:38:00,51.2,6.5,30.03,WSW,248,0.0,0.0,16,0.00,,SKC,0.00,VWS V14.00,2013-07-31 12:38:00,
2013-07-31 05:40:00,51.0,6.4,30.03,WSW,248,0.0,0.0,16,0.00,,SKC,0.00,VWS V14.00,2013-07-31 12:40:00,
2013-07-31 05:41:00,51.0,6.4,30.03,WSW,248,0.0,0.0,16,0.00,,SKC,0.00,VWS V14.00,2013-07-31 12:41:00,
2013-07-31 05:42:00,51.0,6.4,30.03,WSW,248,0.0,0.0,16,0.00,,SKC,0.00,VWS V14.00,2013-07-31 12:42:00,
2013-07-31 05:43:00,51.0,6.4,30.03,WSW,248,0.0,0.0,16,0.00,,SKC,0.00,VWS V14.00,2013-07-31 12:43:00,
2013-07-31 05:45:00,50.6,7.4,30.03,WSW,248,0.0,0.0,17,0.00,,SKC,0.00,VWS V14.00,2013-07-31 12:45:00,
2013-07-31 05:46:00,50.6,7.4,30.03,WSW,248,0.0,0.0,17,0.00,,SKC,0.00,VWS V14.00,2013-07-31 12:46:00,
2013-07-31 05:47:00,50.4,7.3,30.03,WSW,248,0.0,0.0,17,0.00,,SKC,0.00,VWS V14.00,2013-07-31 12:47:00,
2013-07-31 05:48:00,50.4,7.3,30.03,WSW,248,0.0,0.0,17,0.00,,SKC,0.00,VWS V14.00,2013-07-31 12:48:00,
2013-07-31 05:50:00,50.3,7.1,30.03,WSW,248,0.0,0.0,17,0.00,,SKC,0.00,VWS V14.00,2013-07-31 12:50:00,
2013-07-31 05:52:00,50.1,7.0,30.03,WSW,248,0.0,0.0,17,0.00,,SKC,0.00,VWS V14.00,2013-07-31 12:52:00,
2013-07-31 05:53:00,50.1,7.0,30.03,WSW,248,0.0,0.0,17,0.00,,SKC,0.00,VWS V14.00,2013-07-31 12:53:00,
2013-07-31 05:54:00,50.1,7.0,30.03,WSW,248,0.0,0.0,17,0.00,,SKC,0.00,VWS V14.00,2013-07-31 12:54:00,
2013-07-31 05:55:00,50.3,7.1,30.03,WSW,248,0.0,0.0,17,0.00,,SKC,0.00,VWS V14.00,2013-07-31 12:55:00,
2013-07-31 05:57:00,50.4,7.3,30.03,WSW,248,0.0,0.0,17,0.00,,SKC,0.00,VWS V14.00,2013-07-31 12:57:00,
2013-07-31 05:58:00,50.4,7.3,30.03,WSW,248,0.0,0.0,17,0.00,,SKC,0.00,VWS V14.00,2013-07-31 12:58:00,
2013-07-31 05:59:00,50.4,7.3,30.03,WSW,248,0.0,0.0,17,0.00,,SKC,0.00,VWS V14.00,2013-07-31 12:59:00,
2013-07-31 06:00:00,50.4,7.3,30.03,WSW,248,0.0,0.0,17,0.00,,SKC,0.00,VWS V14.00,2013-07-31 13:00:00,
2013-07-31 06:02:00,50.4,7.3,30.03,WSW,248,0.9,0.9,17,0.00,,SKC,0.00,VWS V14.00,2013-07-31 13:02:00,
2013-07-31 06:03:00,50.4,7.3,30.03,WSW,248,0.9,0.9,17,0.00,,SKC,0.00,VWS V14.00,2013-07-31 13:03:00,
2013-07-31 06:04:00,50.4,7.3,30.03,SW,225,0.0,1.3,17,0.00,,SKC,0.00,VWS V14.00,2013-07-31 13:04:00,
2013-07-31 06:05:00,50.4,7.3,30.03,SW,225,1.1,1.3,17,0.00,,SKC,0.00,VWS V14.00,2013-07-31 13:05:00,
2013-07-31 06:07:00,50.4,7.3,30.03,SW,225,0.0,1.1,17,0.00,,SKC,0.00,VWS V14.00,2013-07-31 13:07:00,
2013-07-31 06:08:00,50.4,7.3,30.03,SW,225,0.0,1.1,17,0.00,,SKC,0.00,VWS V14.00,2013-07-31 13:08:00,
2013-07-31 06:09:00,50.4,7.3,30.03,SW,225,0.0,1.1,17,0.00,,SKC,0.00,VWS V14.00,2013-07-31 13:09:00,
2013-07-31 06:10:00,50.4,7.3,30.03,SW,225,0.0,1.1,17,0.00,,SKC,0.00,VWS V14.00,2013-07-31 13:10:00,
2013-07-31 06:12:00,50.4,7.3,30.03,SW,225,0.0,0.0,17,0.00,,SKC,0.00,VWS V14.00,2013-07-31 13:12:00,
2013-07-31 06:13:00,50.4,7.3,30.03,SW,225,0.0,0.0,17,0.00,,SKC,0.00,VWS V14.00,2013-07-31 13:13:00,
2013-07-31 06:14:00,50.6,7.4,30.03,SW,225,0.0,0.0,17,0.00,,SKC,0.00,VWS V14.00,2013-07-31 13:14:00,
2013-07-31 06:15:00,50.6,7.4,30.03,SW,225,0.0,0.0,17,0.00,,SKC,0.00,VWS V14.00,2013-07-31 13:15:00,
2013-07-31 06:17:00,50.6,7.4,30.03,SW,225,0.0,0.0,17,0.00,,SKC,0.00,VWS V14.00,2013-07-31 13:17:00,
2013-07-31 06:19:00,50.8,6.2,30.03,SW,225,0.0,0.0,16,0.00,,SKC,0.00,VWS V14.00,2013-07-31 13:19:00,
2013-07-31 06:22:00,51.2,6.5,30.03,SW,225,0.0,0.0,16,0.00,,SKC,0.00,VWS V14.00,2013-07-31 13:22:00,
2013-07-31 06:24:00,51.2,6.5,30.03,SW,225,0.0,0.0,16,0.00,,SKC,0.00,VWS V14.00,2013-07-31 13:24:00,
2013-07-31 06:25:00,51.3,6.7,30.03,SW,225,0.0,0.0,16,0.00,,SKC,0.00,VWS V14.00,2013-07-31 13:25:00,
2013-07-31 06:27:00,51.5,6.8,30.03,SW,225,0.0,0.0,16,0.00,,SKC,0.00,VWS V14.00,2013-07-31 13:27:00,
2013-07-31 06:29:00,51.5,6.8,30.03,SW,225,0.0,0.0,16,0.00,,SKC,0.00,VWS V14.00,2013-07-31 13:29:00,
2013-07-31 06:30:00,51.5,6.8,30.03,SW,225,0.0,0.0,16,0.00,,SKC,0.00,VWS V14.00,2013-07-31 13:30:00,
2013-07-31 06:33:00,51.5,6.8,30.03,WNW,292,0.0,0.0,16,0.00,,SKC,0.00,VWS V14.00,2013-07-31 13:33:00,
2013-07-31 06:34:00,52.4,7.6,30.03,WNW,292,0.0,0.0,16,0.00,,SKC,0.00,VWS V14.00,2013-07-31 13:34:00,
2013-07-31 06:35:00,52.8,7.8,30.03,WNW,292,0.0,0.0,16,0.00,,SKC,0.00,VWS V14.00,2013-07-31 13:35:00,
2013-07-31 06:38:00,53.1,8.1,30.03,WNW,292,0.0,0.0,16,0.00,,SKC,0.00,VWS V14.00,2013-07-31 13:38:00,
2013-07-31 06:39:00,53.3,8.3,30.03,WNW,292,0.0,0.0,16,0.00,,SKC,0.00,VWS V14.00,2013-07-31 13:39:00,
2013-07-31 06:40:00,53.3,8.3,30.03,WNW,292,0.0,0.0,16,0.00,,SKC,0.00,VWS V14.00,2013-07-31 13:40:00,
2013-07-31 06:43:00,54.2,9.0,30.03,WNW,292,0.0,0.0,16,0.00,,SKC,0.00,VWS V14.00,2013-07-31 13:43:00,
2013-07-31 06:44:00,54.2,9.0,30.03,WNW,292,0.0,0.0,16,0.00,,SKC,0.00,VWS V14.00,2013-07-31 13:44:00,
2013-07-31 06:45:00,54.4,7.7,30.03,WNW,292,0.0,0.0,15,0.00,,SKC,0.00,VWS V14.00,2013-07-31 13:45:00,
2013-07-31 06:49:00,54.8,8.0,30.03,WNW,292,0.0,0.0,15,0.00,,SKC,0.00,VWS V14.00,2013-07-31 13:49:00,
2013-07-31 06:50:00,55.3,8.5,30.03,WNW,292,0.0,0.0,15,0.00,,SKC,0.00,VWS V14.00,2013-07-31 13:50:00,
2013-07-31 06:54:00,55.8,8.9,30.03,WNW,292,0.0,0.0,15,0.00,,SKC,0.00,VWS V14.00,2013-07-31 13:54:00,
2013-07-31 06:55:00,55.8,8.9,30.03,WNW,292,0.0,0.0,15,0.00,,SKC,0.00,VWS V14.00,2013-07-31 13:55:00,
2013-07-31 06:56:00,55.8,8.9,30.03,WNW,292,0.0,0.0,15,0.00,,SKC,0.00,VWS V14.00,2013-07-31 13:56:00,
2013-07-31 06:59:00,55.8,8.9,30.03,WNW,292,0.0,0.0,15,0.00,,SKC,0.00,VWS V14.00,2013-07-31 13:59:00,
2013-07-31 07:00:00,55.8,8.9,30.03,WNW,292,0.0,0.0,15,0.00,,SKC,0.00,VWS V14.00,2013-07-31 14:00:00,
2013-07-31 07:01:00,56.2,9.2,30.03,WNW,292,0.0,0.0,15,0.00,,SKC,0.00,VWS V14.00,2013-07-31 14:01:00,
2013-07-31 07:04:00,56.9,9.8,30.03,WNW,292,0.0,0.0,15,0.00,,SKC,0.00,VWS V14.00,2013-07-31 14:04:00,
2013-07-31 07:05:00,56.9,9.8,30.03,WNW,292,0.0,0.0,15,0.00,,SKC,0.00,VWS V14.00,2013-07-31 14:05:00,
2013-07-31 07:06:00,56.9,9.8,30.03,WNW,292,0.0,0.0,15,0.00,,SKC,0.00,VWS V14.00,2013-07-31 14:06:00,
2013-07-31 07:09:00,58.2,10.8,30.03,WNW,292,0.0,0.0,15,0.00,,SKC,0.00,VWS V14.00,2013-07-31 14:09:00,
2013-07-31 07:10:00,58.2,10.8,30.03,WNW,292,0.0,0.0,15,0.00,,SKC,0.00,VWS V14.00,2013-07-31 14:10:00,
2013-07-31 07:11:00,58.7,11.2,30.03,WNW,292,0.0,0.0,15,0.00,,SKC,0.00,VWS V14.00,2013-07-31 14:11:00,
2013-07-31 07:14:00,59.3,11.6,30.03,WNW,292,0.0,0.0,15,0.00,,SKC,0.00,VWS V14.00,2013-07-31 14:14:00,
2013-07-31 07:15:00,59.6,11.9,30.03,WNW,292,0.0,0.0,15,0.00,,SKC,0.00,VWS V14.00,2013-07-31 14:15:00,
2013-07-31 07:17:00,59.6,11.9,30.03,WNW,292,0.0,0.0,15,0.00,,SKC,0.00,VWS V14.00,2013-07-31 14:17:00,
2013-07-31 07:19:00,59.8,10.5,30.03,WNW,292,0.0,0.0,14,0.00,,SKC,0.00,VWS V14.00,2013-07-31 14:19:00,
2013-07-31 07:20:00,60.0,10.7,30.03,WNW,292,0.0,0.0,14,0.00,,SKC,0.00,VWS V14.00,2013-07-31 14:20:00,
2013-07-31 07:22:00,60.2,10.8,30.03,WNW,292,0.0,0.0,14,0.00,,SKC,0.00,VWS V14.00,2013-07-31 14:22:00,
2013-07-31 07:24:00,60.3,11.0,30.03,WNW,292,0.0,0.0,14,0.00,,SKC,0.00,VWS V14.00,2013-07-31 14:24:00,
2013-07-31 07:25:00,60.3,11.0,30.03,WNW,292,0.0,0.0,14,0.00,,SKC,0.00,VWS V14.00,2013-07-31 14:25:00,
2013-07-31 07:26:00,60.3,11.0,30.03,WNW,292,0.0,0.0,14,0.00,,SKC,0.00,VWS V14.00,2013-07-31 14:26:00,
2013-07-31 07:28:00,60.3,11.0,30.03,WNW,292,0.0,0.0,14,0.00,,SKC,0.00,VWS V14.00,2013-07-31 14:28:00,
2013-07-31 07:29:00,60.0,10.7,30.03,WNW,292,0.0,0.0,14,0.00,,SKC,0.00,VWS V14.00,2013-07-31 14:29:00,
2013-07-31 07:30:00,60.0,10.7,30.03,WNW,292,0.0,0.0,14,0.00,,SKC,0.00,VWS V14.00,2013-07-31 14:30:00,
2013-07-31 07:32:00,60.0,10.7,30.03,WNW,292,0.0,0.0,14,0.00,,SKC,0.00,VWS V14.00,2013-07-31 14:32:00,
2013-07-31 07:33:00,60.0,10.7,30.03,WNW,292,0.0,0.0,14,0.00,,SKC,0.00,VWS V14.00,2013-07-31 14:33:00,
2013-07-31 07:35:00,61.1,11.5,30.03,WNW,292,0.0,0.0,14,0.00,,SKC,0.00,VWS V14.00,2013-07-31 14:35:00,
2013-07-31 07:37:00,61.2,11.7,30.03,WNW,292,0.0,0.0,14,0.00,,SKC,0.00,VWS V14.00,2013-07-31 14:37:00,
2013-07-31 07:38:00,61.2,11.7,30.03,WNW,292,0.0,0.0,14,0.00,,SKC,0.00,VWS V14.00,2013-07-31 14:38:00,
2013-07-31 07:40:00,61.1,11.5,30.03,WNW,292,0.0,0.0,14,0.00,,SKC,0.00,VWS V14.00,2013-07-31 14:40:00,
2013-07-31 07:41:00,61.1,11.5,30.03,SSW,202,0.0,0.0,14,0.00,,SKC,0.00,VWS V14.00,2013-07-31 14:41:00,
2013-07-31 07:42:00,62.0,12.2,30.03,SSW,202,0.0,0.0,14,0.00,,SKC,0.00,VWS V14.00,2013-07-31 14:42:00,
2013-07-31 07:43:00,62.0,12.2,30.03,SSW,202,0.0,0.0,14,0.00,,SKC,0.00,VWS V14.00,2013-07-31 14:43:00,
2013-07-31 07:45:00,62.3,12.5,30.03,SSW,202,0.0,0.0,14,0.00,,SKC,0.00,VWS V14.00,2013-07-31 14:45:00,
2013-07-31 07:46:00,62.9,13.0,30.03,SSW,202,0.0,0.0,14,0.00,,SKC,0.00,VWS V14.00,2013-07-31 14:46:00,
2013-07-31 07:47:00,63.0,13.1,30.03,SSW,202,0.0,0.0,14,0.00,,SKC,0.00,VWS V14.00,2013-07-31 14:47:00,
2013-07-31 07:48:00,63.0,13.1,30.03,SSW,202,0.0,0.0,14,0.00,,SKC,0.00,VWS V14.00,2013-07-31 14:48:00,
2013-07-31 07:50:00,63.8,12.0,30.03,SSW,202,0.0,0.0,13,0.00,,SKC,0.00,VWS V14.00,2013-07-31 14:50:00,
2013-07-31 07:51:00,63.6,11.9,30.03,SSW,202,0.0,0.0,13,0.00,,SKC,0.00,VWS V14.00,2013-07-31 14:51:00,
2013-07-31 07:52:00,63.8,12.0,30.03,SSW,202,0.0,0.0,13,0.00,,SKC,0.00,VWS V14.00,2013-07-31 14:52:00,
2013-07-31 07:53:00,63.8,12.0,30.03,SSW,202,0.0,0.0,13,0.00,,SKC,0.00,VWS V14.00,2013-07-31 14:53:00,
2013-07-31 07:55:00,64.3,12.4,30.03,SSW,202,0.0,0.0,13,0.00,,SKC,0.00,VWS V14.00,2013-07-31 14:55:00,
2013-07-31 07:56:00,64.3,12.4,30.03,SSW,202,0.0,0.0,13,0.00,,SKC,0.00,VWS V14.00,2013-07-31 14:56:00,
2013-07-31 07:58:00,64.3,12.4,30.03,SE,135,0.0,0.0,13,0.00,,SKC,0.00,VWS V14.00,2013-07-31 14:58:00,
2013-07-31 08:00:00,64.3,12.4,30.03,East,90,2.5,2.9,13,0.00,,SKC,0.00,VWS V14.00,2013-07-31 15:00:00,
2013-07-31 08:01:00,64.3,12.4,30.03,ESE,112,0.0,2.9,13,0.00,,SKC,0.00,VWS V14.00,2013-07-31 15:01:00,
2013-07-31 08:02:00,64.3,12.4,30.03,ESE,112,0.0,0.0,13,0.00,,SKC,0.00,VWS V14.00,2013-07-31 15:02:00,
2013-07-31 08:03:00,64.3,12.4,30.03,SE,135,2.7,2.7,13,0.00,,SKC,0.00,VWS V14.00,2013-07-31 15:03:00,
2013-07-31 08:05:00,64.5,12.6,30.03,SE,135,2.9,3.4,13,0.00,,SKC,0.00,VWS V14.00,2013-07-31 15:05:00,
2013-07-31 08:06:00,64.5,12.6,30.03,South,180,2.9,3.4,13,0.00,,SKC,0.00,VWS V14.00,2013-07-31 15:06:00,
2013-07-31 08:07:00,64.5,12.6,30.03,South,180,2.9,3.4,13,0.00,,SKC,0.00,VWS V14.00,2013-07-31 15:07:00,
2013-07-31 08:08:00,64.5,12.6,30.03,South,180,2.9,3.4,13,0.00,,SKC,0.00,VWS V14.00,2013-07-31 15:08:00,
2013-07-31 08:10:00,65.9,13.7,30.03,South,180,1.3,1.3,13,0.00,,SKC,0.00,VWS V14.00,2013-07-31 15:10:00,
2013-07-31 08:11:00,65.9,13.7,30.03,South,180,1.1,1.3,13,0.00,,SKC,0.00,VWS V14.00,2013-07-31 15:11:00,
2013-07-31 08:12:00,65.9,13.7,30.03,South,180,1.1,1.3,13,0.00,,SKC,0.00,VWS V14.00,2013-07-31 15:12:00,
2013-07-31 08:13:00,66.6,14.3,30.03,South,180,0.0,2.0,13,0.00,,SKC,0.00,VWS V14.00,2013-07-31 15:13:00,
2013-07-31 08:15:00,67.4,14.9,30.03,SW,225,1.3,2.0,13,0.00,,SKC,0.00,VWS V14.00,2013-07-31 15:15:00,
2013-07-31 08:16:00,67.4,14.9,30.03,SW,225,1.3,2.0,13,0.00,,SKC,0.00,VWS V14.00,2013-07-31 15:16:00,
2013-07-31 08:17:00,67.9,15.3,30.03,SW,225,0.0,1.3,13,0.00,,SKC,0.00,VWS V14.00,2013-07-31 15:17:00,
2013-07-31 08:18:00,68.3,15.6,30.03,South,180,2.0,2.0,13,0.00,,SKC,0.00,VWS V14.00,2013-07-31 15:18:00,
2013-07-31 08:20:00,68.4,15.7,30.03,South,180,2.5,2.5,13,0.00,,SKC,0.00,VWS V14.00,2013-07-31 15:20:00,
2013-07-31 08:21:00,68.4,15.7,30.03,South,180,2.7,2.7,13,0.00,,SKC,0.00,VWS V14.00,2013-07-31 15:21:00,
2013-07-31 08:23:00,68.4,15.7,30.03,South,180,2.7,2.7,13,0.00,,SKC,0.00,VWS V14.00,2013-07-31 15:23:00,
2013-07-31 08:24:00,68.4,15.7,30.03,SSW,202,2.7,2.9,13,0.00,,SKC,0.00,VWS V14.00,2013-07-31 15:24:00,
2013-07-31 08:25:00,69.0,14.3,30.03,SSW,202,1.3,2.9,12,0.00,,SKC,0.00,VWS V14.00,2013-07-31 15:25:00,
2013-07-31 08:26:00,69.0,14.3,30.03,SW,225,1.6,1.6,12,0.00,,SKC,0.00,VWS V14.00,2013-07-31 15:26:00,
2013-07-31 08:27:00,69.3,14.6,30.03,SW,225,1.3,2.7,12,0.00,,SKC,0.00,VWS V14.00,2013-07-31 15:27:00,
2013-07-31 08:28:00,69.5,14.7,30.03,SSW,202,1.3,3.6,12,0.00,,SKC,0.00,VWS V14.00,2013-07-31 15:28:00,
2013-07-31 08:29:00,69.7,14.9,30.03,SW,225,2.2,3.6,12,0.00,,SKC,0.00,VWS V14.00,2013-07-31 15:29:00,
2013-07-31 08:30:00,70.1,15.1,30.03,South,180,1.6,4.9,12,0.00,,SKC,0.00,VWS V14.00,2013-07-31 15:30:00,
2013-07-31 08:31:00,70.1,15.1,30.03,South,180,3.4,3.4,12,0.00,,SKC,0.00,VWS V14.00,2013-07-31 15:31:00,
2013-07-31 08:32:00,70.1,15.1,30.03,South,180,3.4,3.4,12,0.00,,SKC,0.00,VWS V14.00,2013-07-31 15:32:00,
2013-07-31 08:33:00,70.4,15.4,30.03,SW,225,1.6,3.4,12,0.00,,SKC,0.00,VWS V14.00,2013-07-31 15:33:00,
2013-07-31 08:34:00,70.4,15.4,30.03,South,180,3.6,3.6,12,0.00,,SKC,0.00,VWS V14.00,2013-07-31 15:34:00,
2013-07-31 08:37:00,70.8,15.7,30.03,South,180,3.6,3.6,12,0.00,,SKC,0.00,VWS V14.00,2013-07-31 15:37:00,
2013-07-31 08:38:00,70.8,15.7,30.03,SW,225,2.2,3.6,12,0.00,,SKC,0.00,VWS V14.00,2013-07-31 15:38:00,
2013-07-31 08:39:00,71.1,16.0,30.03,SE,135,3.6,3.6,12,0.00,,SKC,0.00,VWS V14.00,2013-07-31 15:39:00,
2013-07-31 08:42:00,71.3,16.1,30.03,South,180,3.6,3.8,12,0.00,,SKC,0.00,VWS V14.00,2013-07-31 15:42:00,
2013-07-31 08:43:00,71.3,16.1,30.03,South,180,3.6,3.8,12,0.00,,SKC,0.00,VWS V14.00,2013-07-31 15:43:00,
2013-07-31 08:44:00,71.1,16.0,30.03,SSE,158,2.5,3.8,12,0.00,,SKC,0.00,VWS V14.00,2013-07-31 15:44:00,
2013-07-31 08:45:00,71.1,16.0,30.03,SSE,158,3.6,3.8,12,0.00,,SKC,0.00,VWS V14.00,2013-07-31 15:45:00,
2013-07-31 08:48:00,71.7,16.4,30.03,South,180,2.5,3.6,12,0.00,,SKC,0.00,VWS V14.00,2013-07-31 15:48:00,
2013-07-31 08:49:00,72.2,16.8,30.03,South,180,3.4,3.6,12,0.00,,SKC,0.00,VWS V14.00,2013-07-31 15:49:00,
2013-07-31 08:50:00,72.4,15.0,30.03,South,180,3.4,5.4,11,0.00,,SKC,0.00,VWS V14.00,2013-07-31 15:50:00,
2013-07-31 08:53:00,72.6,15.1,30.03,SSE,158,4.3,4.3,11,0.00,,SKC,0.00,VWS V14.00,2013-07-31 15:53:00,
2013-07-31 08:54:00,72.9,15.4,30.03,SE,135,0.0,4.3,11,0.00,,SKC,0.00,VWS V14.00,2013-07-31 15:54:00,
2013-07-31 08:55:00,72.9,15.4,30.03,South,180,0.0,4.3,11,0.00,,SKC,0.00,VWS V14.00,2013-07-31 15:55:00,
2013-07-31 08:58:00,73.7,15.9,30.03,South,180,3.4,3.4,11,0.00,,SKC,0.00,VWS V14.00,2013-07-31 15:58:00,
2013-07-31 09:00:00,74.2,16.4,30.06,SE,135,2.7,3.6,11,0.00,,SKC,0.00,VWS V14.00,2013-07-31 16:00:00,
2013-07-31 09:03:00,74.4,16.5,30.06,SE,135,2.0,3.6,11,0.00,,SKC,0.00,VWS V14.00,2013-07-31 16:03:00,
2013-07-31 09:04:00,74.6,16.6,30.06,ESE,112,0.9,3.6,11,0.00,,SKC,0.00,VWS V14.00,2013-07-31 16:04:00,
2013-07-31 09:05:00,74.7,16.8,30.06,SSE,158,3.1,3.6,11,0.00,,SKC,0.00,VWS V14.00,2013-07-31 16:05:00,
2013-07-31 09:08:00,75.5,17.3,30.06,SE,135,2.5,3.4,11,0.00,,SKC,0.00,VWS V14.00,2013-07-31 16:08:00,
2013-07-31 09:09:00,75.5,17.3,30.06,South,180,0.0,3.4,11,0.00,,SKC,0.00,VWS V14.00,2013-07-31 16:09:00,
2013-07-31 09:10:00,75.5,17.3,30.06,South,180,2.7,3.4,11,0.00,,SKC,0.00,VWS V14.00,2013-07-31 16:10:00,
2013-07-31 09:11:00,74.7,16.8,30.06,SSW,202,2.9,2.9,11,0.00,,SKC,0.00,VWS V14.00,2013-07-31 16:11:00,
2013-07-31 09:13:00,74.7,16.8,30.03,SE,135,1.1,2.9,11,0.00,,SKC,0.00,VWS V14.00,2013-07-31 16:13:00,
2013-07-31 09:14:00,75.5,17.3,30.03,SE,135,1.1,2.9,11,0.00,,SKC,0.00,VWS V14.00,2013-07-31 16:14:00,
2013-07-31 09:15:00,75.3,17.2,30.03,South,180,1.1,4.3,11,0.00,,SKC,0.00,VWS V14.00,2013-07-31 16:15:00,
2013-07-31 09:16:00,75.1,17.0,30.03,South,180,0.0,0.0,11,0.00,,SKC,0.00,VWS V14.00,2013-07-31 16:16:00,
2013-07-31 09:18:00,75.8,17.6,30.03,SE,135,0.0,0.0,11,0.00,,SKC,0.00,VWS V14.00,2013-07-31 16:18:00,
2013-07-31 09:19:00,76.0,17.7,30.03,SE,135,2.0,2.2,11,0.00,,SKC,0.00,VWS V14.00,2013-07-31 16:19:00,
2013-07-31 09:20:00,76.0,17.7,30.03,NE,45,0.0,2.7,11,0.00,,SKC,0.00,VWS V14.00,2013-07-31 16:20:00,
2013-07-31 09:22:00,76.7,18.3,30.03,SE,135,2.9,3.8,11,0.00,,SKC,0.00,VWS V14.00,2013-07-31 16:22:00,
2013-07-31 09:23:00,76.7,18.3,30.03,SE,135,2.9,3.8,11,0.00,,SKC,0.00,VWS V14.00,2013-07-31 16:23:00,
2013-07-31 09:24:00,76.9,18.4,30.03,East,90,2.0,3.8,11,0.00,,SKC,0.00,VWS V14.00,2013-07-31 16:24:00,
2013-07-31 09:25:00,76.9,18.4,30.03,East,90,1.6,3.8,11,0.00,,SKC,0.00,VWS V14.00,2013-07-31 16:25:00,
2013-07-31 09:27:00,78.3,17.3,30.03,ESE,112,2.7,3.6,10,0.00,,SKC,0.00,VWS V14.00,2013-07-31 16:27:00,
2013-07-31 09:28:00,78.3,17.3,30.03,SE,135,2.7,3.6,10,0.00,,SKC,0.00,VWS V14.00,2013-07-31 16:28:00,
2013-07-31 09:29:00,78.3,17.3,30.03,South,180,1.3,3.6,10,0.00,,SKC,0.00,VWS V14.00,2013-07-31 16:29:00,
2013-07-31 09:30:00,78.5,17.5,30.03,South,180,0.0,3.6,10,0.00,,SKC,0.00,VWS V14.00,2013-07-31 16:30:00,
2013-07-31 09:32:00,79.2,18.0,30.03,East,90,0.0,3.4,10,0.00,,SKC,0.00,VWS V14.00,2013-07-31 16:32:00,
2013-07-31 09:33:00,79.2,18.0,30.03,East,90,2.9,3.4,10,0.00,,SKC,0.00,VWS V14.00,2013-07-31 16:33:00,
2013-07-31 09:34:00,79.2,18.0,30.03,East,90,2.9,3.4,10,0.00,,SKC,0.00,VWS V14.00,2013-07-31 16:34:00,
2013-07-31 09:35:00,79.2,18.0,30.03,NE,45,0.0,3.4,10,0.00,,SKC,0.00,VWS V14.00,2013-07-31 16:35:00,
2013-07-31 09:37:00,79.8,18.4,30.03,SSE,158,3.4,3.4,10,0.00,,SKC,0.00,VWS V14.00,2013-07-31 16:37:00,
2013-07-31 09:38:00,79.8,18.4,30.03,SSE,158,3.4,3.4,10,0.00,,SKC,0.00,VWS V14.00,2013-07-31 16:38:00,
2013-07-31 09:39:00,79.8,18.4,30.03,East,90,0.0,3.4,10,0.00,,SKC,0.00,VWS V14.00,2013-07-31 16:39:00,
2013-07-31 09:41:00,79.6,18.3,30.03,SE,135,3.1,3.4,10,0.00,,SKC,0.00,VWS V14.00,2013-07-31 16:41:00,
2013-07-31 09:42:00,79.6,18.3,30.03,SE,135,3.1,3.4,10,0.00,,SKC,0.00,VWS V14.00,2013-07-31 16:42:00,
2013-07-31 09:43:00,79.6,18.3,30.03,SE,135,3.4,3.4,10,0.00,,SKC,0.00,VWS V14.00,2013-07-31 16:43:00,
2013-07-31 09:44:00,80.7,19.1,30.03,NNE,22,0.0,3.4,10,0.00,,SKC,0.00,VWS V14.00,2013-07-31 16:44:00,
2013-07-31 09:45:00,81.2,19.5,30.03,SE,135,0.0,3.4,10,0.00,,SKC,0.00,VWS V14.00,2013-07-31 16:45:00,
2013-07-31 09:46:00,81.9,17.6,30.03,SE,135,1.6,2.0,9,0.00,,SKC,0.00,VWS V14.00,2013-07-31 16:46:00,
2013-07-31 09:47:00,82.1,17.8,30.03,South,180,0.0,2.0,9,0.00,,SKC,0.00,VWS V14.00,2013-07-31 16:47:00,
2013-07-31 09:48:00,82.1,17.8,30.03,South,180,0.0,2.0,9,0.00,,SKC,0.00,VWS V14.00,2013-07-31 16:48:00,
2013-07-31 09:49:00,81.6,17.4,30.03,SSW,202,3.8,3.8,9,0.00,,SKC,0.00,VWS V14.00,2013-07-31 16:49:00,
2013-07-31 09:50:00,81.6,17.4,30.03,WSW,248,1.3,3.8,9,0.00,,SKC,0.00,VWS V14.00,2013-07-31 16:50:00,
2013-07-31 09:51:00,81.9,17.6,30.03,SW,225,2.0,2.0,9,0.00,,SKC,0.00,VWS V14.00,2013-07-31 16:51:00,
2013-07-31 09:52:00,82.1,17.8,30.03,SW,225,0.0,4.3,9,0.00,,SKC,0.00,VWS V14.00,2013-07-31 16:52:00,
2013-07-31 09:53:00,81.8,17.5,30.03,SW,225,1.1,4.3,9,0.00,,SKC,0.00,VWS V14.00,2013-07-31 16:53:00,
2013-07-31 09:55:00,81.6,17.4,30.03,SW,225,4.3,4.3,9,0.00,,SKC,0.00,VWS V14.00,2013-07-31 16:55:00,
2013-07-31 09:56:00,81.6,17.4,30.03,SE,135,1.1,1.1,9,0.00,,SKC,0.00,VWS V14.00,2013-07-31 16:56:00,
2013-07-31 09:57:00,82.7,18.2,30.03,East,90,1.3,4.3,9,0.00,,SKC,0.00,VWS V14.00,2013-07-31 16:57:00,
2013-07-31 09:58:00,82.7,18.2,30.03,East,90,1.3,4.3,9,0.00,,SKC,0.00,VWS V14.00,2013-07-31 16:58:00,
2013-07-31 10:00:00,82.5,18.0,30.03,East,90,2.7,4.3,9,0.00,,SKC,0.00,VWS V14.00,2013-07-31 17:00:00,
2013-07-31 10:01:00,83.2,18.6,30.03,NNE,22,1.3,1.3,9,0.00,,SKC,0.00,VWS V14.00,2013-07-31 17:01:00,
2013-07-31 10:02:00,83.2,18.6,30.03,NNE,22,1.3,1.3,9,0.00,,SKC,0.00,VWS V14.00,2013-07-31 17:02:00,
2013-07-31 10:03:00,83.2,18.6,30.03,NNE,22,1.3,1.3,9,0.00,,SKC,0.00,VWS V14.00,2013-07-31 17:03:00,
2013-07-31 10:04:00,83.2,18.6,30.03,North,0,0.0,1.6,9,0.00,,SKC,0.00,VWS V14.00,2013-07-31 17:04:00,
2013-07-31 10:05:00,84.1,19.2,30.03,NNW,338,2.7,3.4,9,0.00,,SKC,0.00,VWS V14.00,2013-07-31 17:05:00,
2013-07-31 10:06:00,83.7,19.0,30.03,North,0,2.5,4.9,9,0.00,,SKC,0.00,VWS V14.00,2013-07-31 17:06:00,
2013-07-31 10:08:00,82.7,18.2,30.03,NNW,338,5.8,5.8,9,0.00,,SKC,0.00,VWS V14.00,2013-07-31 17:08:00,
2013-07-31 10:09:00,82.7,18.2,30.03,NNW,338,5.8,5.8,9,0.00,,SKC,0.00,VWS V14.00,2013-07-31 17:09:00,
2013-07-31 10:10:00,83.0,18.4,30.03,NW,315,2.5,5.8,9,0.00,,SKC,0.00,VWS V14.00,2013-07-31 17:10:00,
2013-07-31 10:12:00,84.3,19.4,30.03,South,180,0.0,2.5,9,0.00,,SKC,0.00,VWS V14.00,2013-07-31 17:12:00,
2013-07-31 10:13:00,84.8,19.8,30.03,South,180,2.7,2.7,9,0.00,,SKC,0.00,VWS V14.00,2013-07-31 17:13:00,
2013-07-31 10:14:00,84.5,19.5,30.03,SW,225,0.0,2.7,9,0.00,,SKC,0.00,VWS V14.00,2013-07-31 17:14:00,
2013-07-31 10:15:00,85.2,20.0,30.03,SE,135,0.0,2.7,9,0.00,,SKC,0.00,VWS V14.00,2013-07-31 17:15:00,
2013-07-31 10:17:00,84.5,19.5,30.03,SSW,202,0.0,4.3,9,0.00,,SKC,0.00,VWS V14.00,2013-07-31 17:17:00,
2013-07-31 10:19:00,84.3,19.4,30.03,South,180,3.8,5.6,9,0.00,,SKC,0.00,VWS V14.00,2013-07-31 17:19:00,
2013-07-31 10:20:00,84.3,19.4,30.03,SE,135,2.5,5.6,9,0.00,,SKC,0.00,VWS V14.00,2013-07-31 17:20:00,
2013-07-31 10:22:00,84.3,19.4,30.03,East,90,2.9,2.9,9,0.00,,SKC,0.00,VWS V14.00,2013-07-31 17:22:00,
2013-07-31 10:24:00,84.1,24.0,30.03,SE,135,2.9,6.5,11,0.00,,SKC,0.00,VWS V14.00,2013-07-31 17:24:00,
2013-07-31 10:25:00,84.1,24.0,30.03,SE,135,3.1,6.5,11,0.00,,SKC,0.00,VWS V14.00,2013-07-31 17:25:00,
2013-07-31 10:27:00,85.2,24.8,30.03,SE,135,0.0,3.6,11,0.00,,SKC,0.00,VWS V14.00,2013-07-31 17:27:00,
2013-07-31 10:29:00,85.9,25.4,30.03,WSW,248,0.0,3.6,11,0.00,,SKC,0.00,VWS V14.00,2013-07-31 17:29:00,
2013-07-31 10:30:00,86.4,25.8,30.03,NNE,22,3.6,3.6,11,0.00,,SKC,0.00,VWS V14.00,2013-07-31 17:30:00,
2013-07-31 10:31:00,86.3,25.6,30.03,WNW,292,2.9,4.0,11,0.00,,SKC,0.00,VWS V14.00,2013-07-31 17:31:00,
2013-07-31 10:32:00,86.1,25.5,30.03,South,180,0.9,4.0,11,0.00,,SKC,0.00,VWS V14.00,2013-07-31 17:32:00,
2013-07-31 10:34:00,86.1,25.5,30.03,SE,135,2.2,4.0,11,0.00,,SKC,0.00,VWS V14.00,2013-07-31 17:34:00,
2013-07-31 10:35:00,85.9,25.4,30.03,East,90,3.6,4.5,11,0.00,,SKC,0.00,VWS V14.00,2013-07-31 17:35:00,
2013-07-31 10:37:00,85.9,25.4,30.03,SE,135,4.7,4.7,11,0.00,,SKC,0.00,VWS V14.00,2013-07-31 17:37:00,
2013-07-31 10:38:00,85.7,25.2,30.03,South,180,1.3,4.7,11,0.00,,SKC,0.00,VWS V14.00,2013-07-31 17:38:00,
2013-07-31 10:39:00,85.5,25.1,30.03,ESE,112,3.8,4.7,11,0.00,,SKC,0.00,VWS V14.00,2013-07-31 17:39:00,
2013-07-31 10:40:00,85.2,24.8,30.03,East,90,2.7,4.7,11,0.00,,SKC,0.00,VWS V14.00,2013-07-31 17:40:00,
2013-07-31 10:43:00,85.5,25.1,30.03,East,90,4.0,4.0,11,0.00,,SKC,0.00,VWS V14.00,2013-07-31 17:43:00,
2013-07-31 10:44:00,85.9,25.4,30.03,East,90,5.8,6.3,11,0.00,,SKC,0.00,VWS V14.00,2013-07-31 17:44:00,
2013-07-31 10:45:00,85.4,24.9,30.03,SSE,158,4.9,6.5,11,0.00,,SKC,0.00,VWS V14.00,2013-07-31 17:45:00,
2013-07-31 10:48:00,85.4,24.9,30.03,SSE,158,4.3,4.3,11,0.00,,SKC,0.00,VWS V14.00,2013-07-31 17:48:00,
2013-07-31 10:49:00,85.4,24.9,30.03,SSE,158,10.3,11.0,11,0.00,,SKC,0.00,VWS V14.00,2013-07-31 17:49:00,
2013-07-31 10:50:00,84.6,24.4,30.03,SE,135,4.0,11.0,11,0.00,,SKC,0.00,VWS V14.00,2013-07-31 17:50:00,
2013-07-31 10:53:00,84.6,24.4,30.03,SW,225,0.9,6.0,11,0.00,,SKC,0.00,VWS V14.00,2013-07-31 17:53:00,
2013-07-31 10:54:00,85.4,24.9,30.03,SW,225,4.0,6.0,11,0.00,,SKC,0.00,VWS V14.00,2013-07-31 17:54:00,
2013-07-31 10:55:00,85.4,24.9,30.03,South,180,1.3,6.0,11,0.00,,SKC,0.00,VWS V14.00,2013-07-31 17:55:00,
2013-07-31 10:58:00,85.9,25.4,30.03,West,270,2.5,3.8,11,0.00,,SKC,0.00,VWS V14.00,2013-07-31 17:58:00,
2013-07-31 10:59:00,86.8,26.0,30.03,West,270,0.0,3.8,11,0.00,,SKC,0.00,VWS V14.00,2013-07-31 17:59:00,
2013-07-31 11:00:00,88.1,27.0,30.03,South,180,1.1,3.8,11,0.00,,SKC,0.00,VWS V14.00,2013-07-31 18:00:00,
2013-07-31 11:01:00,88.1,27.0,30.03,East,90,0.0,1.1,11,0.00,,SKC,0.00,VWS V14.00,2013-07-31 18:01:00,
2013-07-31 11:03:00,88.1,27.0,30.03,East,90,2.0,2.7,11,0.00,,SKC,0.00,VWS V14.00,2013-07-31 18:03:00,
2013-07-31 11:04:00,87.7,26.7,30.03,East,90,2.9,5.4,11,0.00,,SKC,0.00,VWS V14.00,2013-07-31 18:04:00,
2013-07-31 11:05:00,87.7,26.7,30.03,ESE,112,4.0,5.4,11,0.00,,SKC,0.00,VWS V14.00,2013-07-31 18:05:00,
2013-07-31 11:06:00,86.8,26.0,30.03,SE,135,4.0,6.5,11,0.00,,SKC,0.00,VWS V14.00,2013-07-31 18:06:00,
2013-07-31 11:08:00,86.4,25.8,30.03,SSE,158,5.8,6.5,11,0.00,,SKC,0.00,VWS V14.00,2013-07-31 18:08:00,
2013-07-31 11:10:00,87.2,26.3,30.03,East,90,2.7,6.5,11,0.00,,SKC,0.00,VWS V14.00,2013-07-31 18:10:00,
2013-07-31 11:12:00,89.0,25.4,30.03,NNE,22,5.4,5.4,10,0.00,,SKC,0.00,VWS V14.00,2013-07-31 18:12:00,
2013-07-31 11:13:00,89.1,25.5,30.03,East,90,1.1,5.4,10,0.00,,SKC,0.00,VWS V14.00,2013-07-31 18:13:00,
2013-07-31 11:15:00,86.6,25.9,30.03,SW,225,4.0,8.7,11,0.00,,SKC,0.00,VWS V14.00,2013-07-31 18:15:00,
2013-07-31 11:17:00,85.7,25.2,30.03,West,270,5.8,7.2,11,0.00,,SKC,0.00,VWS V14.00,2013-07-31 18:17:00,
2013-07-31 11:18:00,85.5,25.1,30.03,West,270,4.0,7.2,11,0.00,,SKC,0.00,VWS V14.00,2013-07-31 18:18:00,
2013-07-31 11:20:00,88.2,27.1,30.03,North,0,0.0,7.2,11,0.00,,SKC,0.00,VWS V14.00,2013-07-31 18:20:00,
2013-07-31 11:22:00,89.9,26.1,30.03,SSW,202,0.0,1.3,10,0.00,,SKC,0.00,VWS V14.00,2013-07-31 18:22:00,
2013-07-31 11:23:00,90.0,26.2,30.03,East,90,0.9,2.0,10,0.00,,SKC,0.00,VWS V14.00,2013-07-31 18:23:00,
2013-07-31 11:25:00,89.0,25.4,30.03,SE,135,2.9,5.6,10,0.00,,SKC,0.00,VWS V14.00,2013-07-31 18:25:00,
2013-07-31 11:26:00,88.8,25.3,30.03,SE,135,4.7,5.6,10,0.00,,SKC,0.00,VWS V14.00,2013-07-31 18:26:00,
2013-07-31 11:27:00,88.8,25.3,30.03,South,180,5.8,5.8,10,0.00,,SKC,0.00,VWS V14.00,2013-07-31 18:27:00,
2013-07-31 11:28:00,88.8,25.3,30.03,SE,135,5.6,6.5,10,0.00,,SKC,0.00,VWS V14.00,2013-07-31 18:28:00,
2013-07-31 11:30:00,87.2,26.3,30.00,ESE,112,4.9,7.6,11,0.00,,SKC,0.00,VWS V14.00,2013-07-31 18:30:00,
2013-07-31 11:31:00,87.2,26.3,30.00,SE,135,4.3,4.3,11,0.00,,SKC,0.00,VWS V14.00,2013-07-31 18:31:00,
2013-07-31 11:33:00,86.6,25.9,30.00,SE,135,4.5,8.1,11,0.00,,SKC,0.00,VWS V14.00,2013-07-31 18:33:00,
2013-07-31 11:35:00,87.0,26.2,30.00,South,180,2.5,8.1,11,0.00,,SKC,0.00,VWS V14.00,2013-07-31 18:35:00,
2013-07-31 11:36:00,87.0,26.2,30.00,South,180,2.5,8.1,11,0.00,,SKC,0.00,VWS V14.00,2013-07-31 18:36:00,
2013-07-31 11:38:00,88.1,27.0,30.00,ENE,68,3.8,6.5,11,0.00,,SKC,0.00,VWS V14.00,2013-07-31 18:38:00,
2013-07-31 11:40:00,88.4,27.3,30.00,SE,135,6.3,6.3,11,0.00,,SKC,0.00,VWS V14.00,2013-07-31 18:40:00,
2013-07-31 11:41:00,88.4,27.3,30.00,SSE,158,6.0,6.3,11,0.00,,SKC,0.00,VWS V14.00,2013-07-31 18:41:00,
2013-07-31 11:43:00,87.5,26.6,30.00,SSE,158,3.1,8.1,11,0.00,,SKC,0.00,VWS V14.00,2013-07-31 18:43:00,
2013-07-31 11:44:00,88.1,27.0,30.00,West,270,1.3,8.1,11,0.00,,SKC,0.00,VWS V14.00,2013-07-31 18:44:00,
2013-07-31 11:45:00,89.0,25.4,30.00,WSW,248,0.9,8.1,10,0.00,,SKC,0.00,VWS V14.00,2013-07-31 18:45:00,
2013-07-31 11:46:00,89.3,25.7,30.00,SW,225,2.7,2.7,10,0.00,,SKC,0.00,VWS V14.00,2013-07-31 18:46:00,
2013-07-31 11:48:00,89.7,26.0,30.00,West,270,1.6,4.9,10,0.00,,SKC,0.00,VWS V14.00,2013-07-31 18:48:00,
2013-07-31 11:49:00,89.7,26.0,30.00,West,270,0.0,4.9,10,0.00,,SKC,0.00,VWS V14.00,2013-07-31 18:49:00,
2013-07-31 11:50:00,90.4,26.5,30.00,SSE,158,5.4,5.4,10,0.00,,SKC,0.00,VWS V14.00,2013-07-31 18:50:00,
2013-07-31 11:51:00,90.4,26.5,30.00,SSE,158,5.4,5.4,10,0.00,,SKC,0.00,VWS V14.00,2013-07-31 18:51:00,
2013-07-31 11:53:00,90.2,26.4,30.00,SE,135,1.6,5.4,10,0.00,,SKC,0.00,VWS V14.00,2013-07-31 18:53:00,
2013-07-31 11:54:00,90.2,26.4,30.00,SE,135,1.6,5.4,10,0.00,,SKC,0.00,VWS V14.00,2013-07-31 18:54:00,
2013-07-31 11:55:00,89.0,25.4,30.00,SE,135,5.8,6.0,10,0.00,,SKC,0.00,VWS V14.00,2013-07-31 18:55:00,
2013-07-31 11:56:00,89.0,25.4,30.00,SE,135,2.0,5.8,10,0.00,,SKC,0.00,VWS V14.00,2013-07-31 18:56:00,
2013-07-31 11:58:00,91.1,27.0,30.00,ENE,68,0.9,5.8,10,0.00,,SKC,0.00,VWS V14.00,2013-07-31 18:58:00,
2013-07-31 11:59:00,91.1,27.0,30.00,ENE,68,0.9,5.8,10,0.00,,SKC,0.00,VWS V14.00,2013-07-31 18:59:00,
2013-07-31 12:00:00,91.1,27.0,30.00,ESE,112,5.8,6.5,10,0.00,,SKC,0.00,VWS V14.00,2013-07-31 19:00:00,
2013-07-31 12:02:00,90.4,26.5,30.00,SE,135,3.8,5.8,10,0.00,,SKC,0.00,VWS V14.00,2013-07-31 19:02:00,
2013-07-31 12:03:00,89.0,25.4,30.00,East,90,5.4,8.1,10,0.00,,SKC,0.00,VWS V14.00,2013-07-31 19:03:00,
2013-07-31 12:04:00,89.0,25.4,30.00,East,90,5.4,8.1,10,0.00,,SKC,0.00,VWS V14.00,2013-07-31 19:04:00,
2013-07-31 12:05:00,88.2,27.1,30.00,SE,135,5.4,8.7,11,0.00,,SKC,0.00,VWS V14.00,2013-07-31 19:05:00,
2013-07-31 12:07:00,88.1,27.0,30.00,ESE,112,6.0,6.5,11,0.00,,SKC,0.00,VWS V14.00,2013-07-31 19:07:00,
2013-07-31 12:08:00,87.3,26.5,30.00,South,180,7.6,7.8,11,0.00,,SKC,0.00,VWS V14.00,2013-07-31 19:08:00,
2013-07-31 12:09:00,87.2,26.3,30.00,South,180,6.5,7.8,11,0.00,,SKC,0.00,VWS V14.00,2013-07-31 19:09:00,
2013-07-31 12:10:00,88.2,27.1,30.00,SE,135,2.7,7.8,11,0.00,,SKC,0.00,VWS V14.00,2013-07-31 19:10:00,
2013-07-31 12:12:00,88.2,27.1,30.00,South,180,3.4,7.4,11,0.00,,SKC,0.00,VWS V14.00,2013-07-31 19:12:00,
2013-07-31 12:13:00,87.9,26.9,30.03,SE,135,4.3,7.4,11,0.00,,SKC,0.00,VWS V14.00,2013-07-31 19:13:00,
2013-07-31 12:14:00,87.9,26.9,30.03,South,180,3.1,7.4,11,0.00,,SKC,0.00,VWS V14.00,2013-07-31 19:14:00,
2013-07-31 12:15:00,88.8,25.3,30.03,SSE,158,3.6,7.4,10,0.00,,SKC,0.00,VWS V14.00,2013-07-31 19:15:00,
2013-07-31 12:17:00,90.4,26.5,30.03,NW,315,1.3,4.9,10,0.00,,SKC,0.00,VWS V14.00,2013-07-31 19:17:00,
2013-07-31 12:19:00,90.6,26.6,30.03,South,180,3.6,4.9,10,0.00,,SKC,0.00,VWS V14.00,2013-07-31 19:19:00,
2013-07-31 12:20:00,89.3,25.7,30.03,SW,225,4.3,4.9,10,0.00,,SKC,0.00,VWS V14.00,2013-07-31 19:20:00,
2013-07-31 12:22:00,88.1,27.0,30.03,South,180,3.6,7.8,11,0.00,,SKC,0.00,VWS V14.00,2013-07-31 19:22:00,
2013-07-31 12:24:00,90.0,26.2,30.03,NW,315,1.3,7.8,10,0.00,,SKC,0.00,VWS V14.00,2013-07-31 19:24:00,
2013-07-31 12:25:00,90.6,26.6,30.03,ENE,68,3.6,7.8,10,0.00,,SKC,0.00,VWS V14.00,2013-07-31 19:25:00,
2013-07-31 12:28:00,90.6,26.6,30.03,East,90,4.0,7.8,10,0.00,,SKC,0.00,VWS V14.00,2013-07-31 19:28:00,
2013-07-31 12:29:00,90.2,26.4,30.03,East,90,5.6,7.8,10,0.00,,SKC,0.00,VWS V14.00,2013-07-31 19:29:00,
2013-07-31 12:30:00,91.1,27.0,30.03,NNE,22,0.0,7.8,10,0.00,,SKC,0.00,VWS V14.00,2013-07-31 19:30:00,
2013-07-31 12:33:00,89.9,26.1,30.03,SE,135,3.1,6.5,10,0.00,,SKC,0.00,VWS V14.00,2013-07-31 19:33:00,
2013-07-31 12:34:00,90.2,26.4,30.03,South,180,0.0,6.5,10,0.00,,SKC,0.00,VWS V14.00,2013-07-31 19:34:00,
2013-07-31 12:35:00,91.3,27.2,30.03,South,180,1.3,6.5,10,0.00,,SKC,0.00,VWS V14.00,2013-07-31 19:35:00,
2013-07-31 12:36:00,91.5,27.3,30.03,SW,225,3.1,6.5,10,0.00,,SKC,0.00,VWS V14.00,2013-07-31 19:36:00,
2013-07-31 12:38:00,92.4,25.4,30.03,SE,135,0.0,6.5,9,0.00,,SKC,0.00,VWS V14.00,2013-07-31 19:38:00,
2013-07-31 12:39:00,92.4,25.4,30.03,SE,135,6.5,6.5,9,0.00,,SKC,0.00,VWS V14.00,2013-07-31 19:39:00,
2013-07-31 12:40:00,92.4,25.4,30.03,SE,135,3.8,6.5,9,0.00,,SKC,0.00,VWS V14.00,2013-07-31 19:40:00,
2013-07-31 12:41:00,92.4,25.4,30.03,SE,135,6.5,6.5,9,0.00,,SKC,0.00,VWS V14.00,2013-07-31 19:41:00,
2013-07-31 12:44:00,90.2,26.4,30.00,SW,225,3.1,7.2,10,0.00,,SKC,0.00,VWS V14.00,2013-07-31 19:44:00,
2013-07-31 12:45:00,90.8,26.8,30.00,East,90,0.9,7.2,10,0.00,,SKC,0.00,VWS V14.00,2013-07-31 19:45:00,
2013-07-31 12:46:00,91.3,27.2,30.00,West,270,3.1,3.6,10,0.00,,SKC,0.00,VWS V14.00,2013-07-31 19:46:00,
2013-07-31 12:49:00,93.6,26.4,30.00,West,270,4.7,4.7,9,0.00,,SKC,0.00,VWS V14.00,2013-07-31 19:49:00,
2013-07-31 12:50:00,92.6,25.6,30.00,West,270,3.4,5.6,9,0.00,,SKC,0.00,VWS V14.00,2013-07-31 19:50:00,
2013-07-31 12:51:00,91.5,27.3,30.00,North,0,7.6,10.3,10,0.00,,SKC,0.00,VWS V14.00,2013-07-31 19:51:00,
2013-07-31 12:54:00,90.9,26.9,30.00,NNW,338,5.6,10.3,10,0.00,,SKC,0.00,VWS V14.00,2013-07-31 19:54:00,
2013-07-31 12:55:00,91.3,27.2,30.00,WNW,292,1.6,10.3,10,0.00,,SKC,0.00,VWS V14.00,2013-07-31 19:55:00,
2013-07-31 12:57:00,92.2,25.3,30.00,West,270,2.9,6.3,9,0.00,,SKC,0.00,VWS V14.00,2013-07-31 19:57:00,
2013-07-31 12:59:00,94.0,26.6,30.00,SW,225,2.7,6.3,9,0.00,,SKC,0.00,VWS V14.00,2013-07-31 19:59:00,
2013-07-31 13:00:00,93.1,26.0,30.00,East,90,2.2,6.3,9,0.00,,SKC,0.00,VWS V14.00,2013-07-31 20:00:00,
2013-07-31 13:02:00,92.2,25.3,30.00,South,180,2.9,4.9,9,0.00,,SKC,0.00,VWS V14.00,2013-07-31 20:02:00,
2013-07-31 13:04:00,91.8,27.6,30.00,South,180,3.1,5.8,10,0.00,,SKC,0.00,VWS V14.00,2013-07-31 20:04:00,
2013-07-31 13:05:00,91.7,27.4,30.00,SW,225,3.4,5.8,10,0.00,,SKC,0.00,VWS V14.00,2013-07-31 20:05:00,
2013-07-31 13:07:00,90.8,26.8,30.00,SW,225,5.8,5.8,10,0.00,,SKC,0.00,VWS V14.00,2013-07-31 20:07:00,
2013-07-31 13:09:00,91.3,27.2,30.00,WNW,292,2.9,7.4,10,0.00,,SKC,0.00,VWS V14.00,2013-07-31 20:09:00,
2013-07-31 13:10:00,91.3,27.2,30.00,WNW,292,2.9,7.4,10,0.00,,SKC,0.00,VWS V14.00,2013-07-31 20:10:00,
2013-07-31 13:12:00,93.1,26.0,30.00,NW,315,3.8,4.3,9,0.00,,SKC,0.00,VWS V14.00,2013-07-31 20:12:00,
2013-07-31 13:14:00,94.7,27.2,29.97,SE,135,0.0,4.3,9,0.00,,SKC,0.00,VWS V14.00,2013-07-31 20:14:00,
2013-07-31 13:15:00,94.7,27.2,29.97,SE,135,0.0,4.3,9,0.00,,SKC,0.00,VWS V14.00,2013-07-31 20:15:00,
2013-07-31 13:17:00,94.7,27.2,29.97,SE,135,2.5,7.6,9,0.00,,SKC,0.00,VWS V14.00,2013-07-31 20:17:00,
2013-07-31 13:20:00,94.4,26.9,29.97,West,270,1.3,7.6,9,0.00,,SKC,0.00,VWS V14.00,2013-07-31 20:20:00,
2013-07-31 13:21:00,95.8,28.0,29.97,SW,225,0.0,0.0,9,0.00,,SKC,0.00,VWS V14.00,2013-07-31 20:21:00,
2013-07-31 13:22:00,96.7,28.7,29.97,NNE,22,2.5,3.4,9,0.00,,SKC,0.00,VWS V14.00,2013-07-31 20:22:00,
2013-07-31 13:25:00,96.0,28.1,29.97,NW,315,5.8,6.0,9,0.00,,SKC,0.00,VWS V14.00,2013-07-31 20:25:00,
2013-07-31 13:26:00,94.9,27.3,29.97,NW,315,4.3,5.4,9,0.00,,SKC,0.00,VWS V14.00,2013-07-31 20:26:00,
2013-07-31 13:28:00,93.3,26.1,29.97,West,270,8.5,10.7,9,0.00,,SKC,0.00,VWS V14.00,2013-07-31 20:28:00,
2013-07-31 13:30:00,93.3,26.1,29.97,West,270,4.7,10.7,9,0.00,,SKC,0.00,VWS V14.00,2013-07-31 20:30:00,
2013-07-31 13:31:00,91.3,27.2,29.97,West,270,5.4,7.6,10,0.00,,SKC,0.00,VWS V14.00,2013-07-31 20:31:00,
2013-07-31 13:33:00,91.3,27.2,29.97,SW,225,8.5,8.5,10,0.00,,SKC,0.00,VWS V14.00,2013-07-31 20:33:00,
2013-07-31 13:35:00,89.7,26.0,29.97,WNW,292,9.0,9.0,10,0.00,,SKC,0.00,VWS V14.00,2013-07-31 20:35:00,
2013-07-31 13:36:00,89.7,26.0,29.97,WSW,248,7.8,8.5,10,0.00,,SKC,0.00,VWS V14.00,2013-07-31 20:36:00,
2013-07-31 13:38:00,90.8,26.8,29.97,West,270,3.8,8.5,10,0.00,,SKC,0.00,VWS V14.00,2013-07-31 20:38:00,
2013-07-31 13:40:00,90.9,26.9,29.97,NNW,338,8.7,8.7,10,0.00,,SKC,0.00,VWS V14.00,2013-07-31 20:40:00,
2013-07-31 13:41:00,90.9,26.9,29.97,WNW,292,8.5,8.7,10,0.00,,SKC,0.00,VWS V14.00,2013-07-31 20:41:00,
2013-07-31 13:43:00,88.2,27.1,29.97,North,0,0.0,8.7,11,0.00,,SKC,0.00,VWS V14.00,2013-07-31 20:43:00,
2013-07-31 13:45:00,89.3,25.7,29.94,NNE,22,3.4,8.7,10,0.00,,SKC,0.00,VWS V14.00,2013-07-31 20:45:00,
2013-07-31 13:46:00,89.3,25.7,29.94,NNW,338,2.7,3.4,10,0.00,,SKC,0.00,VWS V14.00,2013-07-31 20:46:00,
2013-07-31 13:48:00,90.4,26.5,29.94,NNE,22,0.9,5.8,10,0.00,,SKC,0.00,VWS V14.00,2013-07-31 20:48:00,
2013-07-31 13:50:00,90.9,26.9,29.94,NW,315,2.7,2.7,10,0.00,,SKC,0.00,VWS V14.00,2013-07-31 20:50:00,
2013-07-31 13:51:00,90.9,26.9,29.94,West,270,5.8,5.8,10,0.00,,SKC,0.00,VWS V14.00,2013-07-31 20:51:00,
2013-07-31 13:52:00,89.0,25.4,29.94,WNW,292,7.6,8.7,10,0.00,,SKC,0.00,VWS V14.00,2013-07-31 20:52:00,
2013-07-31 13:53:00,89.0,25.4,29.94,WNW,292,7.6,8.7,10,0.00,,SKC,0.00,VWS V14.00,2013-07-31 20:53:00,
2013-07-31 13:55:00,87.3,26.5,29.94,NW,315,4.9,8.7,11,0.00,,SKC,0.00,VWS V14.00,2013-07-31 20:55:00,
2013-07-31 13:56:00,87.3,26.5,29.94,NNW,338,5.4,5.4,11,0.00,,SKC,0.00,VWS V14.00,2013-07-31 20:56:00,
2013-07-31 13:57:00,87.9,26.9,29.94,North,0,5.6,6.0,11,0.00,,SKC,0.00,VWS V14.00,2013-07-31 20:57:00,
2013-07-31 13:58:00,89.3,25.7,29.94,WNW,292,4.9,6.0,10,0.00,,SKC,0.00,VWS V14.00,2013-07-31 20:58:00,
2013-07-31 14:00:00,89.5,25.8,29.94,NNW,338,7.6,8.7,10,0.00,,SKC,0.00,VWS V14.00,2013-07-31 21:00:00,
2013-07-31 14:01:00,89.5,25.8,29.94,NNW,338,7.6,8.7,10,0.00,,SKC,0.00,VWS V14.00,2013-07-31 21:01:00,
2013-07-31 14:02:00,90.2,26.4,29.94,NW,315,5.8,7.6,10,0.00,,SKC,0.00,VWS V14.00,2013-07-31 21:02:00,
2013-07-31 14:03:00,91.1,27.0,29.94,North,0,6.3,7.6,10,0.00,,SKC,0.00,VWS V14.00,2013-07-31 21:03:00,
2013-07-31 14:05:00,92.0,27.7,29.94,North,0,3.4,7.6,10,0.00,,SKC,0.00,VWS V14.00,2013-07-31 21:05:00,
2013-07-31 14:07:00,90.2,26.4,29.94,NNW,338,2.9,7.4,10,0.00,,SKC,0.00,VWS V14.00,2013-07-31 21:07:00,
2013-07-31 14:08:00,90.2,26.4,29.94,NE,45,2.0,7.4,10,0.00,,SKC,0.00,VWS V14.00,2013-07-31 21:08:00,
2013-07-31 14:10:00,90.8,26.8,29.94,West,270,3.4,7.4,10,0.00,,SKC,0.00,VWS V14.00,2013-07-31 21:10:00,
2013-07-31 14:12:00,90.8,26.8,29.94,West,270,3.4,3.4,10,0.00,,SKC,0.00,VWS V14.00,2013-07-31 21:12:00,
2013-07-31 14:14:00,89.3,25.7,29.94,NW,315,6.3,7.2,10,0.00,,SKC,0.00,VWS V14.00,2013-07-31 21:14:00,
2013-07-31 14:15:00,89.1,25.5,29.94,West,270,6.5,7.8,10,0.00,,SKC,0.00,VWS V14.00,2013-07-31 21:15:00,
2013-07-31 14:17:00,90.8,26.8,29.94,South,180,2.7,7.6,10,0.00,,SKC,0.00,VWS V14.00,2013-07-31 21:17:00,
2013-07-31 14:18:00,90.8,26.8,29.94,South,180,2.7,7.6,10,0.00,,SKC,0.00,VWS V14.00,2013-07-31 21:18:00,
2013-07-31 14:19:00,90.8,26.8,29.94,West,270,3.6,7.6,10,0.00,,SKC,0.00,VWS V14.00,2013-07-31 21:19:00,
2013-07-31 14:20:00,90.4,26.5,29.94,SW,225,4.9,7.6,10,0.00,,SKC,0.00,VWS V14.00,2013-07-31 21:20:00,
2013-07-31 14:23:00,92.6,25.6,29.94,SE,135,4.3,4.9,9,0.00,,SKC,0.00,VWS V14.00,2013-07-31 21:23:00,
2013-07-31 14:24:00,91.8,27.6,29.94,SW,225,4.0,6.3,10,0.00,,SKC,0.00,VWS V14.00,2013-07-31 21:24:00,
2013-07-31 14:25:00,91.5,27.3,29.94,SW,225,2.7,6.3,10,0.00,,SKC,0.00,VWS V14.00,2013-07-31 21:25:00,
2013-07-31 14:28:00,92.4,25.4,29.94,South,180,3.1,5.8,9,0.00,,SKC,0.00,VWS V14.00,2013-07-31 21:28:00,
2013-07-31 14:29:00,93.8,26.5,29.94,SW,225,1.3,5.8,9,0.00,,SKC,0.00,VWS V14.00,2013-07-31 21:29:00,
2013-07-31 14:30:00,93.8,26.5,29.94,SW,225,7.2,7.2,9,0.00,,SKC,0.00,VWS V14.00,2013-07-31 21:30:00,
2013-07-31 14:33:00,89.7,26.0,29.94,South,180,6.3,10.7,10,0.00,,SKC,0.00,VWS V14.00,2013-07-31 21:33:00,
2013-07-31 14:34:00,88.8,25.3,29.94,SW,225,6.3,10.7,10,0.00,,SKC,0.00,VWS V14.00,2013-07-31 21:34:00,
2013-07-31 14:35:00,88.8,25.3,29.94,South,180,5.6,10.7,10,0.00,,SKC,0.00,VWS V14.00,2013-07-31 21:35:00,
2013-07-31 14:38:00,86.8,26.0,29.94,West,270,5.4,6.0,11,0.00,,SKC,0.00,VWS V14.00,2013-07-31 21:38:00,
2013-07-31 14:39:00,86.6,25.9,29.94,West,270,6.0,6.0,11,0.00,,SKC,0.00,VWS V14.00,2013-07-31 21:39:00,
2013-07-31 14:40:00,86.3,25.6,29.94,SW,225,5.4,6.0,11,0.00,,SKC,0.00,VWS V14.00,2013-07-31 21:40:00,
2013-07-31 14:43:00,86.3,25.6,29.94,WNW,292,11.4,11.4,11,0.00,,SKC,0.00,VWS V14.00,2013-07-31 21:43:00,
2013-07-31 14:44:00,85.4,24.9,29.94,WNW,292,6.3,11.4,11,0.00,,SKC,0.00,VWS V14.00,2013-07-31 21:44:00,
2013-07-31 14:45:00,85.4,24.9,29.94,West,270,8.7,11.4,11,0.00,,SKC,0.00,VWS V14.00,2013-07-31 21:45:00,
2013-07-31 14:48:00,84.8,24.5,29.94,NW,315,5.6,7.8,11,0.00,,SKC,0.00,VWS V14.00,2013-07-31 21:48:00,
2013-07-31 14:49:00,84.5,24.2,29.94,West,270,3.1,7.8,11,0.00,,SKC,0.00,VWS V14.00,2013-07-31 21:49:00,
2013-07-31 14:50:00,84.6,24.4,29.94,North,0,4.3,7.8,11,0.00,,SKC,0.00,VWS V14.00,2013-07-31 21:50:00,
2013-07-31 14:53:00,85.4,24.9,29.94,NE,45,2.0,6.0,11,0.00,,SKC,0.00,VWS V14.00,2013-07-31 21:53:00,
2013-07-31 14:54:00,85.4,24.9,29.94,NW,315,2.9,6.0,11,0.00,,SKC,0.00,VWS V14.00,2013-07-31 21:54:00,
2013-07-31 14:55:00,85.4,24.9,29.94,West,270,3.4,6.0,11,0.00,,SKC,0.00,VWS V14.00,2013-07-31 21:55:00,
2013-07-31 14:58:00,83.6,23.6,29.94,NW,315,8.1,12.3,11,0.00,,SKC,0.00,VWS V14.00,2013-07-31 21:58:00,
2013-07-31 14:59:00,83.6,23.6,29.94,WNW,292,9.8,12.3,11,0.00,,SKC,0.00,VWS V14.00,2013-07-31 21:59:00,
2013-07-31 15:00:00,83.4,23.4,29.94,West,270,3.8,12.3,11,0.00,,SKC,0.00,VWS V14.00,2013-07-31 22:00:00,
2013-07-31 15:04:00,86.6,25.9,29.94,South,180,9.4,9.4,11,0.00,,SKC,0.00,VWS V14.00,2013-07-31 22:04:00,
2013-07-31 15:05:00,86.6,25.9,29.94,NNW,338,9.8,13.6,11,0.00,,SKC,0.00,VWS V14.00,2013-07-31 22:05:00,
2013-07-31 15:09:00,87.2,26.3,29.94,West,270,10.7,11.0,11,0.00,,SKC,0.00,VWS V14.00,2013-07-31 22:09:00,
2013-07-31 15:10:00,87.2,26.3,29.94,West,270,10.7,11.0,11,0.00,,SKC,0.00,VWS V14.00,2013-07-31 22:10:00,
2013-07-31 15:11:00,87.2,26.3,29.94,West,270,10.5,13.0,11,0.00,,SKC,0.00,VWS V14.00,2013-07-31 22:11:00,
2013-07-31 15:14:00,87.2,26.3,29.94,NW,315,7.2,13.0,11,0.00,,SKC,0.00,VWS V14.00,2013-07-31 22:14:00,
2013-07-31 15:15:00,88.6,25.1,29.94,NNW,338,6.5,13.0,10,0.00,,SKC,0.00,VWS V14.00,2013-07-31 22:15:00,
2013-07-31 15:16:00,88.1,27.0,29.94,NNW,338,6.3,8.7,11,0.00,,SKC,0.00,VWS V14.00,2013-07-31 22:16:00,
2013-07-31 15:19:00,89.1,25.5,29.94,WNW,292,10.1,10.1,10,0.00,,SKC,0.00,VWS V14.00,2013-07-31 22:19:00,
2013-07-31 15:20:00,88.1,27.0,29.94,WNW,292,9.6,10.1,11,0.00,,SKC,0.00,VWS V14.00,2013-07-31 22:20:00,
2013-07-31 15:21:00,87.5,26.6,29.94,WNW,292,5.4,11.0,11,0.00,,SKC,0.00,VWS V14.00,2013-07-31 22:21:00,
2013-07-31 15:24:00,88.2,27.1,29.94,SW,225,6.3,11.0,11,0.00,,SKC,0.00,VWS V14.00,2013-07-31 22:24:00,
2013-07-31 15:25:00,88.2,27.1,29.94,WNW,292,3.4,11.0,11,0.00,,SKC,0.00,VWS V14.00,2013-07-31 22:25:00,
2013-07-31 15:27:00,88.1,27.0,29.94,WNW,292,14.5,14.5,11,0.00,,SKC,0.00,VWS V14.00,2013-07-31 22:27:00,
2013-07-31 15:29:00,88.2,27.1,29.94,WNW,292,13.0,14.5,11,0.00,,SKC,0.00,VWS V14.00,2013-07-31 22:29:00,
2013-07-31 15:30:00,88.2,27.1,29.94,NW,315,11.0,14.5,11,0.00,,SKC,0.00,VWS V14.00,2013-07-31 22:30:00,
2013-07-31 15:31:00,87.0,26.2,29.94,WNW,292,10.7,14.5,11,0.00,,SKC,0.00,VWS V14.00,2013-07-31 22:31:00,
2013-07-31 15:32:00,87.0,26.2,29.94,WNW,292,12.8,15.9,11,0.00,,SKC,0.00,VWS V14.00,2013-07-31 22:32:00,
2013-07-31 15:34:00,87.0,26.2,29.94,WNW,292,9.4,15.9,11,0.00,,SKC,0.00,VWS V14.00,2013-07-31 22:34:00,
2013-07-31 15:35:00,87.0,26.2,29.94,WNW,292,9.4,15.9,11,0.00,,SKC,0.00,VWS V14.00,2013-07-31 22:35:00,
2013-07-31 15:36:00,87.0,26.2,29.94,WNW,292,9.4,15.9,11,0.00,,SKC,0.00,VWS V14.00,2013-07-31 22:36:00,
2013-07-31 15:37:00,87.7,26.7,29.94,WNW,292,7.4,15.9,11,0.00,,SKC,0.00,VWS V14.00,2013-07-31 22:37:00,
2013-07-31 15:39:00,87.5,26.6,29.94,NW,315,10.5,15.9,11,0.00,,SKC,0.00,VWS V14.00,2013-07-31 22:39:00,
2013-07-31 15:40:00,87.5,26.6,29.94,West,270,12.5,15.9,11,0.00,,SKC,0.00,VWS V14.00,2013-07-31 22:40:00,
2013-07-31 15:41:00,87.5,26.6,29.94,West,270,8.7,15.9,11,0.00,,SKC,0.00,VWS V14.00,2013-07-31 22:41:00,
2013-07-31 15:42:00,87.5,26.6,29.94,WNW,292,9.8,15.9,11,0.00,,SKC,0.00,VWS V14.00,2013-07-31 22:42:00,
2013-07-31 15:45:00,87.0,26.2,29.91,West,270,14.3,15.9,11,0.00,,SKC,0.00,VWS V14.00,2013-07-31 22:45:00,
2013-07-31 15:46:00,86.6,25.9,29.91,NW,315,12.3,15.9,11,0.00,,SKC,0.00,VWS V14.00,2013-07-31 22:46:00,
2013-07-31 15:47:00,87.0,26.2,29.91,West,270,15.4,15.4,11,0.00,,SKC,0.00,VWS V14.00,2013-07-31 22:47:00,
2013-07-31 15:50:00,86.6,25.9,29.91,West,270,12.5,16.3,11,0.00,,SKC,0.00,VWS V14.00,2013-07-31 22:50:00,
2013-07-31 15:51:00,86.3,25.6,29.91,West,270,10.5,12.8,11,0.00,,SKC,0.00,VWS V14.00,2013-07-31 22:51:00,
2013-07-31 15:52:00,86.4,25.8,29.91,West,270,6.5,13.4,11,0.00,,SKC,0.00,VWS V14.00,2013-07-31 22:52:00,
2013-07-31 15:55:00,85.9,25.4,29.91,WNW,292,9.8,13.6,11,0.00,,SKC,0.00,VWS V14.00,2013-07-31 22:55:00,
2013-07-31 15:57:00,86.1,25.5,29.91,West,270,13.0,13.6,11,0.00,,SKC,0.00,VWS V14.00,2013-07-31 22:57:00,
2013-07-31 15:58:00,85.7,25.2,29.91,WNW,292,19.5,19.5,11,0.00,,SKC,0.00,VWS V14.00,2013-07-31 22:58:00,
2013-07-31 16:00:00,84.8,24.5,29.91,WNW,292,13.6,21.5,11,0.00,,SKC,0.00,VWS V14.00,2013-07-31 23:00:00,
2013-07-31 16:02:00,84.8,24.5,29.91,WNW,292,15.4,21.5,11,0.00,,SKC,0.00,VWS V14.00,2013-07-31 23:02:00,
2013-07-31 16:03:00,85.4,24.9,29.91,West,270,13.2,21.5,11,0.00,,SKC,0.00,VWS V14.00,2013-07-31 23:03:00,
2013-07-31 16:05:00,85.4,24.9,29.91,West,270,10.5,21.5,11,0.00,,SKC,0.00,VWS V14.00,2013-07-31 23:05:00,
2013-07-31 16:07:00,85.7,25.2,29.91,WNW,292,12.5,12.5,11,0.00,,SKC,0.00,VWS V14.00,2013-07-31 23:07:00,
2013-07-31 16:08:00,85.7,25.2,29.91,WNW,292,12.8,15.2,11,0.00,,SKC,0.00,VWS V14.00,2013-07-31 23:08:00,
2013-07-31 16:10:00,85.5,25.1,29.91,NW,315,11.0,16.8,11,0.00,,SKC,0.00,VWS V14.00,2013-07-31 23:10:00,
2013-07-31 16:11:00,85.4,24.9,29.91,NW,315,13.2,13.2,11,0.00,,SKC,0.00,VWS V14.00,2013-07-31 23:11:00,
2013-07-31 16:12:00,85.7,25.2,29.91,WNW,292,10.7,13.2,11,0.00,,SKC,0.00,VWS V14.00,2013-07-31 23:12:00,
2013-07-31 16:13:00,85.4,24.9,29.91,NW,315,12.8,13.2,11,0.00,,SKC,0.00,VWS V14.00,2013-07-31 23:13:00,
2013-07-31 16:15:00,84.8,24.5,29.91,NW,315,12.8,16.3,11,0.00,,SKC,0.00,VWS V14.00,2013-07-31 23:15:00,
2013-07-31 16:16:00,84.8,24.5,29.91,WSW,248,13.0,16.8,11,0.00,,SKC,0.00,VWS V14.00,2013-07-31 23:16:00,
2013-07-31 16:17:00,85.4,24.9,29.91,WNW,292,11.0,16.8,11,0.00,,SKC,0.00,VWS V14.00,2013-07-31 23:17:00,
2013-07-31 16:18:00,85.2,24.8,29.91,WNW,292,15.2,16.8,11,0.00,,SKC,0.00,VWS V14.00,2013-07-31 23:18:00,
2013-07-31 16:20:00,85.0,24.7,29.91,WNW,292,11.0,17.2,11,0.00,,SKC,0.00,VWS V14.00,2013-07-31 23:20:00,
2013-07-31 16:21:00,85.2,24.8,29.91,West,270,10.1,12.1,11,0.00,,SKC,0.00,VWS V14.00,2013-07-31 23:21:00,
2013-07-31 16:22:00,85.2,24.8,29.91,NW,315,12.3,12.8,11,0.00,,SKC,0.00,VWS V14.00,2013-07-31 23:22:00,
2013-07-31 16:23:00,84.8,24.5,29.91,WNW,292,13.4,15.7,11,0.00,,SKC,0.00,VWS V14.00,2013-07-31 23:23:00,
2013-07-31 16:25:00,85.0,24.7,29.91,West,270,12.8,15.7,11,0.00,,SKC,0.00,VWS V14.00,2013-07-31 23:25:00,
2013-07-31 16:26:00,84.8,24.5,29.91,West,270,13.2,13.2,11,0.00,,SKC,0.00,VWS V14.00,2013-07-31 23:26:00,
2013-07-31 16:27:00,84.8,24.5,29.91,West,270,13.0,13.2,11,0.00,,SKC,0.00,VWS V14.00,2013-07-31 23:27:00,
2013-07-31 16:28:00,84.8,24.5,29.91,West,270,13.0,13.2,11,0.00,,SKC,0.00,VWS V14.00,2013-07-31 23:28:00,
2013-07-31 16:30:00,84.3,24.1,29.91,West,270,13.0,15.2,11,0.00,,SKC,0.00,VWS V14.00,2013-07-31 23:30:00,
2013-07-31 16:31:00,84.3,24.1,29.91,West,270,10.7,15.4,11,0.00,,SKC,0.00,VWS V14.00,2013-07-31 23:31:00,
2013-07-31 16:33:00,84.3,24.1,29.91,West,270,12.5,15.4,11,0.00,,SKC,0.00,VWS V14.00,2013-07-31 23:33:00,
2013-07-31 16:34:00,84.8,24.5,29.91,WNW,292,10.1,15.4,11,0.00,,SKC,0.00,VWS V14.00,2013-07-31 23:34:00,
2013-07-31 16:35:00,84.8,24.5,29.91,NW,315,8.7,8.7,11,0.00,,SKC,0.00,VWS V14.00,2013-07-31 23:35:00,
2013-07-31 16:36:00,85.0,24.7,29.91,NW,315,10.3,10.3,11,0.00,,SKC,0.00,VWS V14.00,2013-07-31 23:36:00,
2013-07-31 16:38:00,85.0,24.7,29.91,NW,315,8.7,10.3,11,0.00,,SKC,0.00,VWS V14.00,2013-07-31 23:38:00,
2013-07-31 16:39:00,85.0,24.7,29.91,NW,315,9.6,13.0,11,0.00,,SKC,0.00,VWS V14.00,2013-07-31 23:39:00,
2013-07-31 16:40:00,84.6,24.4,29.91,WNW,292,11.0,13.2,11,0.00,,SKC,0.00,VWS V14.00,2013-07-31 23:40:00,
2013-07-31 16:42:00,84.8,24.5,29.91,West,270,19.5,19.5,11,0.00,,SKC,0.00,VWS V14.00,2013-07-31 23:42:00,
2013-07-31 16:43:00,84.1,24.0,29.91,WNW,292,17.2,19.5,11,0.00,,SKC,0.00,VWS V14.00,2013-07-31 23:43:00,
2013-07-31 16:44:00,83.7,23.7,29.91,West,270,11.0,19.5,11,0.00,,SKC,0.00,VWS V14.00,2013-07-31 23:44:00,
2013-07-31 16:45:00,83.7,23.7,29.91,West,270,10.5,19.5,11,0.00,,SKC,0.00,VWS V14.00,2013-07-31 23:45:00,
2013-07-31 16:46:00,83.7,23.7,29.91,NW,315,13.9,13.9,11,0.00,,SKC,0.00,VWS V14.00,2013-07-31 23:46:00,
2013-07-31 16:47:00,83.9,23.8,29.91,WNW,292,8.5,15.4,11,0.00,,SKC,0.00,VWS V14.00,2013-07-31 23:47:00,
2013-07-31 16:48:00,83.9,23.8,29.91,West,270,9.8,15.4,11,0.00,,SKC,0.00,VWS V14.00,2013-07-31 23:48:00,
2013-07-31 16:49:00,84.3,24.1,29.91,West,270,11.4,15.4,11,0.00,,SKC,0.00,VWS V14.00,2013-07-31 23:49:00,
2013-07-31 16:50:00,84.3,24.1,29.91,West,270,14.1,15.4,11,0.00,,SKC,0.00,VWS V14.00,2013-07-31 23:50:00,
2013-07-31 16:51:00,84.3,24.1,29.91,West,270,7.6,11.0,11,0.00,,SKC,0.00,VWS V14.00,2013-07-31 23:51:00,
2013-07-31 16:52:00,84.1,24.0,29.91,West,270,7.4,12.5,11,0.00,,SKC,0.00,VWS V14.00,2013-07-31 23:52:00,
2013-07-31 16:53:00,84.6,24.4,29.91,WSW,248,11.0,12.5,11,0.00,,SKC,0.00,VWS V14.00,2013-07-31 23:53:00,
2013-07-31 16:54:00,84.6,24.4,29.91,West,270,7.4,12.5,11,0.00,,SKC,0.00,VWS V14.00,2013-07-31 23:54:00,
2013-07-31 16:55:00,84.6,24.4,29.91,WNW,292,10.5,12.5,11,0.00,,SKC,0.00,VWS V14.00,2013-07-31 23:55:00,
2013-07-31 16:56:00,84.5,24.2,29.91,West,270,12.8,13.0,11,0.00,,SKC,0.00,VWS V14.00,2013-07-31 23:56:00,
2013-07-31 16:57:00,84.5,24.2,29.91,West,270,13.2,13.2,11,0.00,,SKC,0.00,VWS V14.00,2013-07-31 23:57:00,
2013-07-31 16:58:00,83.6,23.6,29.91,West,270,13.0,13.2,11,0.00,,SKC,0.00,VWS V14.00,2013-07-31 23:58:00,
2013-07-31 16:59:00,83.6,23.6,29.91,WNW,292,12.1,13.2,11,0.00,,SKC,0.00,VWS V14.00,2013-07-31 23:59:00,
2013-07-31 17:00:00,83.7,23.7,29.91,West,270,11.0,13.2,11,0.00,,SKC,0.00,VWS V14.00,2013-08-01 00:00:00,
2013-07-31 17:01:00,83.6,23.6,29.91,SW,225,10.7,15.4,11,0.00,,SKC,0.00,VWS V14.00,2013-08-01 00:01:00,
2013-07-31 17:02:00,83.4,23.4,29.91,West,270,9.8,15.4,11,0.00,,SKC,0.00,VWS V14.00,2013-08-01 00:02:00,
2013-07-31 17:04:00,83.6,23.6,29.91,West,270,12.3,15.4,11,0.00,,SKC,0.00,VWS V14.00,2013-08-01 00:04:00,
2013-07-31 17:05:00,83.7,23.7,29.91,West,270,10.5,15.4,11,0.00,,SKC,0.00,VWS V14.00,2013-08-01 00:05:00,
2013-07-31 17:06:00,83.6,23.6,29.91,SW,225,13.4,17.5,11,0.00,,SKC,0.00,VWS V14.00,2013-08-01 00:06:00,
2013-07-31 17:08:00,83.4,23.4,29.91,WSW,248,6.5,17.5,11,0.00,,SKC,0.00,VWS V14.00,2013-08-01 00:08:00,
2013-07-31 17:09:00,83.9,23.8,29.91,WNW,292,8.7,17.5,11,0.00,,SKC,0.00,VWS V14.00,2013-08-01 00:09:00,
2013-07-31 17:10:00,83.9,23.8,29.91,WSW,248,10.5,17.5,11,0.00,,SKC,0.00,VWS V14.00,2013-08-01 00:10:00,
2013-07-31 17:11:00,83.6,23.6,29.91,WNW,292,13.2,13.2,11,0.00,,SKC,0.00,VWS V14.00,2013-08-01 00:11:00,
2013-07-31 17:13:00,82.8,25.1,29.91,WNW,292,9.4,15.2,12,0.00,,SKC,0.00,VWS V14.00,2013-08-01 00:13:00,
2013-07-31 17:14:00,82.8,25.1,29.91,WSW,248,10.1,20.1,12,0.00,,SKC,0.00,VWS V14.00,2013-08-01 00:14:00,
2013-07-31 17:15:00,82.7,25.0,29.91,West,270,12.8,20.1,12,0.00,,SKC,0.00,VWS V14.00,2013-08-01 00:15:00,
2013-07-31 17:17:00,82.8,25.1,29.91,West,270,10.5,14.3,12,0.00,,SKC,0.00,VWS V14.00,2013-08-01 00:17:00,
2013-07-31 17:18:00,82.8,25.1,29.91,WSW,248,13.2,15.4,12,0.00,,SKC,0.00,VWS V14.00,2013-08-01 00:18:00,
2013-07-31 17:19:00,82.8,25.1,29.91,WSW,248,19.9,19.9,12,0.00,,SKC,0.00,VWS V14.00,2013-08-01 00:19:00,
2013-07-31 17:20:00,82.8,25.1,29.91,WSW,248,19.9,19.9,12,0.00,,SKC,0.00,VWS V14.00,2013-08-01 00:20:00,
2013-07-31 17:22:00,82.5,24.8,29.91,WNW,292,11.0,14.8,12,0.00,,SKC,0.00,VWS V14.00,2013-08-01 00:22:00,
2013-07-31 17:23:00,82.5,24.8,29.91,West,270,10.3,14.8,12,0.00,,SKC,0.00,VWS V14.00,2013-08-01 00:23:00,
2013-07-31 17:24:00,82.5,24.8,29.91,West,270,11.0,15.2,12,0.00,,SKC,0.00,VWS V14.00,2013-08-01 00:24:00,
2013-07-31 17:25:00,82.5,24.8,29.91,West,270,11.0,15.2,12,0.00,,SKC,0.00,VWS V14.00,2013-08-01 00:25:00,
2013-07-31 17:27:00,81.9,24.4,29.91,West,270,17.5,17.5,12,0.00,,SKC,0.00,VWS V14.00,2013-08-01 00:27:00,
2013-07-31 17:28:00,81.9,24.4,29.91,West,270,12.1,17.5,12,0.00,,SKC,0.00,VWS V14.00,2013-08-01 00:28:00,
2013-07-31 17:30:00,81.9,24.4,29.91,West,270,10.1,17.5,12,0.00,,SKC,0.00,VWS V14.00,2013-08-01 00:30:00,
2013-07-31 17:32:00,82.1,24.5,29.91,WSW,248,13.2,14.3,12,0.00,,SKC,0.00,VWS V14.00,2013-08-01 00:32:00,
2013-07-31 17:34:00,82.1,24.5,29.91,WSW,248,11.0,14.3,12,0.00,,SKC,0.00,VWS V14.00,2013-08-01 00:34:00,
2013-07-31 17:35:00,81.9,24.4,29.91,West,270,13.6,14.3,12,0.00,,SKC,0.00,VWS V14.00,2013-08-01 00:35:00,
2013-07-31 17:38:00,81.6,24.1,29.91,West,270,8.5,17.5,12,0.00,,SKC,0.00,VWS V14.00,2013-08-01 00:38:00,
2013-07-31 17:39:00,81.8,24.2,29.91,WNW,292,13.2,17.5,12,0.00,,SKC,0.00,VWS V14.00,2013-08-01 00:39:00,
2013-07-31 17:40:00,81.8,24.2,29.91,West,270,10.7,17.5,12,0.00,,SKC,0.00,VWS V14.00,2013-08-01 00:40:00,
2013-07-31 17:43:00,81.9,24.4,29.91,West,270,10.1,13.6,12,0.00,,SKC,0.00,VWS V14.00,2013-08-01 00:43:00,
2013-07-31 17:44:00,81.6,24.1,29.91,West,270,10.1,17.2,12,0.00,,SKC,0.00,VWS V14.00,2013-08-01 00:44:00,
2013-07-31 17:45:00,81.8,24.2,29.91,West,270,14.5,17.2,12,0.00,,SKC,0.00,VWS V14.00,2013-08-01 00:45:00,
2013-07-31 17:48:00,81.6,24.1,29.91,WNW,292,13.0,13.2,12,0.00,,SKC,0.00,VWS V14.00,2013-08-01 00:48:00,
2013-07-31 17:49:00,81.6,24.1,29.91,West,270,9.8,13.2,12,0.00,,SKC,0.00,VWS V14.00,2013-08-01 00:49:00,
2013-07-31 17:50:00,81.9,24.4,29.91,West,270,13.0,13.2,12,0.00,,SKC,0.00,VWS V14.00,2013-08-01 00:50:00,
2013-07-31 17:51:00,81.9,24.4,29.91,West,270,13.0,13.0,12,0.00,,SKC,0.00,VWS V14.00,2013-08-01 00:51:00,
2013-07-31 17:53:00,81.6,24.1,29.91,WNW,292,13.9,18.8,12,0.00,,SKC,0.00,VWS V14.00,2013-08-01 00:53:00,
2013-07-31 17:54:00,81.0,23.7,29.91,West,270,14.8,18.8,12,0.00,,SKC,0.00,VWS V14.00,2013-08-01 00:54:00,
2013-07-31 17:55:00,80.9,23.5,29.91,West,270,12.8,12.8,12,0.00,,SKC,0.00,VWS V14.00,2013-08-01 00:55:00,
2013-07-31 17:56:00,80.9,23.5,29.91,West,270,16.8,16.8,12,0.00,,SKC,0.00,VWS V14.00,2013-08-01 00:56:00,
2013-07-31 17:58:00,80.7,19.1,29.91,WSW,248,11.4,16.8,10,0.00,,SKC,0.00,VWS V14.00,2013-08-01 00:58:00,
2013-07-31 18:00:00,80.7,19.1,29.91,WSW,248,10.1,16.8,10,0.00,,SKC,0.00,VWS V14.00,2013-08-01 01:00:00,
2013-07-31 18:01:00,80.7,19.1,29.91,WSW,248,10.1,16.8,10,0.00,,SKC,0.00,VWS V14.00,2013-08-01 01:01:00,
2013-07-31 18:04:00,80.5,19.0,29.91,West,270,12.8,15.4,10,0.00,,SKC,0.00,VWS V14.00,2013-08-01 01:04:00,
2013-07-31 18:05:00,80.5,19.0,29.91,West,270,12.8,15.4,10,0.00,,SKC,0.00,VWS V14.00,2013-08-01 01:05:00,
2013-07-31 18:06:00,80.1,18.7,29.91,WSW,248,15.2,15.2,10,0.00,,SKC,0.00,VWS V14.00,2013-08-01 01:06:00,
2013-07-31 18:09:00,80.1,18.7,29.91,WNW,292,12.5,17.7,10,0.00,,SKC,0.00,VWS V14.00,2013-08-01 01:09:00,
2013-07-31 18:10:00,80.1,18.7,29.91,West,270,14.3,17.7,10,0.00,,SKC,0.00,VWS V14.00,2013-08-01 01:10:00,
2013-07-31 18:11:00,80.1,18.7,29.91,West,270,14.3,17.7,10,0.00,,SKC,0.00,VWS V14.00,2013-08-01 01:11:00,
2013-07-31 18:14:00,80.0,18.6,29.91,West,270,15.7,17.7,10,0.00,,SKC,0.00,VWS V14.00,2013-08-01 01:14:00,
2013-07-31 18:15:00,80.0,18.6,29.91,WSW,248,12.8,17.7,10,0.00,,SKC,0.00,VWS V14.00,2013-08-01 01:15:00,
2013-07-31 18:16:00,80.0,18.6,29.91,West,270,15.2,15.2,10,0.00,,SKC,0.00,VWS V14.00,2013-08-01 01:16:00,
2013-07-31 18:17:00,79.8,18.4,29.91,West,270,14.5,15.2,10,0.00,,SKC,0.00,VWS V14.00,2013-08-01 01:17:00,
2013-07-31 18:19:00,80.0,18.6,29.91,West,270,9.6,18.6,10,0.00,,SKC,0.00,VWS V14.00,2013-08-01 01:19:00,
2013-07-31 18:20:00,79.8,18.4,29.91,SW,225,10.5,10.5,10,0.00,,SKC,0.00,VWS V14.00,2013-08-01 01:20:00,
2013-07-31 18:21:00,79.8,18.4,29.91,West,270,13.2,13.2,10,0.00,,SKC,0.00,VWS V14.00,2013-08-01 01:21:00,
2013-07-31 18:22:00,79.8,18.4,29.91,West,270,13.2,13.2,10,0.00,,SKC,0.00,VWS V14.00,2013-08-01 01:22:00,
2013-07-31 18:25:00,79.4,18.1,29.91,WSW,248,13.2,17.0,10,0.00,,SKC,0.00,VWS V14.00,2013-08-01 01:25:00,
2013-07-31 18:26:00,79.1,17.9,29.91,West,270,12.8,12.8,10,0.00,,SKC,0.00,VWS V14.00,2013-08-01 01:26:00,
2013-07-31 18:27:00,79.1,17.9,29.91,WSW,248,13.0,14.1,10,0.00,,SKC,0.00,VWS V14.00,2013-08-01 01:27:00,
2013-07-31 18:30:00,78.9,17.7,29.91,West,270,11.0,14.1,10,0.00,,SKC,0.00,VWS V14.00,2013-08-01 01:30:00,
2013-07-31 18:31:00,79.1,17.9,29.91,West,270,11.0,15.4,10,0.00,,SKC,0.00,VWS V14.00,2013-08-01 01:31:00,
2013-07-31 18:32:00,78.9,17.7,29.91,West,270,13.0,15.4,10,0.00,,SKC,0.00,VWS V14.00,2013-08-01 01:32:00,
2013-07-31 18:35:00,78.7,17.6,29.91,West,270,12.8,15.4,10,0.00,,SKC,0.00,VWS V14.00,2013-08-01 01:35:00,
2013-07-31 18:36:00,78.7,17.6,29.91,WSW,248,10.5,10.5,10,0.00,,SKC,0.00,VWS V14.00,2013-08-01 01:36:00,
2013-07-31 18:37:00,78.7,17.6,29.91,WSW,248,13.4,13.4,10,0.00,,SKC,0.00,VWS V14.00,2013-08-01 01:37:00,
2013-07-31 18:38:00,78.5,17.5,29.91,West,270,10.7,14.8,10,0.00,,SKC,0.00,VWS V14.00,2013-08-01 01:38:00,
2013-07-31 18:40:00,78.2,17.2,29.91,West,270,12.5,15.4,10,0.00,,SKC,0.00,VWS V14.00,2013-08-01 01:40:00,
2013-07-31 18:41:00,78.2,17.2,29.91,WNW,292,11.0,16.1,10,0.00,,SKC,0.00,VWS V14.00,2013-08-01 01:41:00,
2013-07-31 18:42:00,78.2,17.2,29.91,West,270,15.2,17.5,10,0.00,,SKC,0.00,VWS V14.00,2013-08-01 01:42:00,
2013-07-31 18:43:00,78.0,17.1,29.91,West,270,15.4,17.5,10,0.00,,SKC,0.00,VWS V14.00,2013-08-01 01:43:00,
2013-07-31 18:45:00,77.8,16.9,29.91,West,270,13.0,17.5,10,0.00,,SKC,0.00,VWS V14.00,2013-08-01 01:45:00,
2013-07-31 18:47:00,77.6,19.0,29.91,WSW,248,12.8,13.6,11,0.00,,SKC,0.00,VWS V14.00,2013-08-01 01:47:00,
2013-07-31 18:48:00,77.6,19.0,29.91,West,270,10.5,13.6,11,0.00,,SKC,0.00,VWS V14.00,2013-08-01 01:48:00,
2013-07-31 18:50:00,77.6,19.0,29.91,West,270,10.3,15.7,11,0.00,,SKC,0.00,VWS V14.00,2013-08-01 01:50:00,
2013-07-31 18:52:00,77.6,19.0,29.91,WSW,248,12.8,15.7,11,0.00,,SKC,0.00,VWS V14.00,2013-08-01 01:52:00,
2013-07-31 18:53:00,77.6,19.0,29.91,West,270,13.4,15.7,11,0.00,,SKC,0.00,VWS V14.00,2013-08-01 01:53:00,
2013-07-31 18:55:00,77.3,18.7,29.91,WSW,248,15.2,15.7,11,0.00,,SKC,0.00,VWS V14.00,2013-08-01 01:55:00,
2013-07-31 18:57:00,76.9,18.4,29.91,West,270,11.2,15.2,11,0.00,,SKC,0.00,VWS V14.00,2013-08-01 01:57:00,
2013-07-31 18:58:00,76.9,18.4,29.91,West,270,12.5,15.2,11,0.00,,SKC,0.00,VWS V14.00,2013-08-01 01:58:00,
2013-07-31 19:00:00,76.9,18.4,29.91,West,270,13.2,15.2,11,0.00,,SKC,0.00,VWS V14.00,2013-08-01 02:00:00,
2013-07-31 19:03:00,76.7,18.3,29.91,West,270,12.3,15.2,11,0.00,,SKC,0.00,VWS V14.00,2013-08-01 02:03:00,
2013-07-31 19:04:00,76.7,18.3,29.91,WSW,248,13.6,15.2,11,0.00,,SKC,0.00,VWS V14.00,2013-08-01 02:04:00,
2013-07-31 19:05:00,76.7,18.3,29.91,West,270,12.5,15.2,11,0.00,,SKC,0.00,VWS V14.00,2013-08-01 02:05:00,
2013-07-31 19:08:00,76.4,18.0,29.91,West,270,10.5,13.2,11,0.00,,SKC,0.00,VWS V14.00,2013-08-01 02:08:00,
2013-07-31 19:09:00,76.4,18.0,29.91,West,270,17.2,17.2,11,0.00,,SKC,0.00,VWS V14.00,2013-08-01 02:09:00,
2013-07-31 19:11:00,76.0,17.7,29.91,West,270,7.8,17.2,11,0.00,,SKC,0.00,VWS V14.00,2013-08-01 02:11:00,
2013-07-31 19:13:00,76.0,17.7,29.91,West,270,12.5,17.2,11,0.00,,SKC,0.00,VWS V14.00,2013-08-01 02:13:00,
2013-07-31 19:14:00,76.0,17.7,29.91,West,270,12.5,17.2,11,0.00,,SKC,0.00,VWS V14.00,2013-08-01 02:14:00,
2013-07-31 19:15:00,75.5,17.3,29.88,WSW,248,10.3,18.1,11,0.00,,SKC,0.00,VWS V14.00,2013-08-01 02:15:00,
2013-07-31 19:16:00,75.3,17.2,29.88,West,270,14.8,14.8,11,0.00,,SKC,0.00,VWS V14.00,2013-08-01 02:16:00,
2013-07-31 19:18:00,75.3,17.2,29.88,West,270,12.8,19.5,11,0.00,,SKC,0.00,VWS V14.00,2013-08-01 02:18:00,
2013-07-31 19:19:00,75.3,17.2,29.88,West,270,12.8,19.5,11,0.00,,SKC,0.00,VWS V14.00,2013-08-01 02:19:00,
2013-07-31 19:20:00,75.1,17.0,29.88,West,270,16.6,19.5,11,0.00,,SKC,0.00,VWS V14.00,2013-08-01 02:20:00,
2013-07-31 19:22:00,74.9,16.9,29.88,West,270,13.9,16.6,11,0.00,,SKC,0.00,VWS V14.00,2013-08-01 02:22:00,
2013-07-31 19:23:00,74.7,16.8,29.88,West,270,10.3,22.2,11,0.00,,SKC,0.00,VWS V14.00,2013-08-01 02:23:00,
2013-07-31 19:24:00,74.7,16.8,29.88,West,270,16.1,22.2,11,0.00,,SKC,0.00,VWS V14.00,2013-08-01 02:24:00,
2013-07-31 19:25:00,74.6,16.6,29.88,West,270,12.8,22.2,11,0.00,,SKC,0.00,VWS V14.00,2013-08-01 02:25:00,
2013-07-31 19:27:00,74.4,16.5,29.88,West,270,13.0,13.2,11,0.00,,SKC,0.00,VWS V14.00,2013-08-01 02:27:00,
2013-07-31 19:29:00,74.4,16.5,29.88,SW,225,8.7,14.5,11,0.00,,SKC,0.00,VWS V14.00,2013-08-01 02:29:00,
2013-07-31 19:30:00,74.2,16.4,29.88,West,270,10.5,17.0,11,0.00,,SKC,0.00,VWS V14.00,2013-08-01 02:30:00,
2013-07-31 19:32:00,74.0,16.2,29.88,WSW,248,13.2,17.0,11,0.00,,SKC,0.00,VWS V14.00,2013-08-01 02:32:00,
2013-07-31 19:34:00,73.8,16.1,29.88,WSW,248,14.3,17.0,11,0.00,,SKC,0.00,VWS V14.00,2013-08-01 02:34:00,
2013-07-31 19:35:00,73.7,15.9,29.88,West,270,19.0,19.0,11,0.00,,SKC,0.00,VWS V14.00,2013-08-01 02:35:00,
2013-07-31 19:37:00,73.5,15.8,29.88,WSW,248,14.8,15.2,11,0.00,,SKC,0.00,VWS V14.00,2013-08-01 02:37:00,
2013-07-31 19:39:00,73.3,15.7,29.88,WSW,248,12.3,18.1,11,0.00,,SKC,0.00,VWS V14.00,2013-08-01 02:39:00,
2013-07-31 19:40:00,73.3,15.7,29.88,West,270,11.9,18.1,11,0.00,,SKC,0.00,VWS V14.00,2013-08-01 02:40:00,
2013-07-31 19:42:00,73.1,15.5,29.88,West,270,18.1,18.1,11,0.00,,SKC,0.00,VWS V14.00,2013-08-01 02:42:00,
2013-07-31 19:44:00,73.1,15.5,29.88,West,270,13.0,18.1,11,0.00,,SKC,0.00,VWS V14.00,2013-08-01 02:44:00,
2013-07-31 19:45:00,73.1,15.5,29.88,West,270,12.5,18.1,11,0.00,,SKC,0.00,VWS V14.00,2013-08-01 02:45:00,
2013-07-31 19:47:00,72.6,15.1,29.91,West,270,13.0,17.0,11,0.00,,SKC,0.00,VWS V14.00,2013-08-01 02:47:00,
2013-07-31 19:49:00,72.6,15.1,29.91,WNW,292,12.8,17.0,11,0.00,,SKC,0.00,VWS V14.00,2013-08-01 02:49:00,
2013-07-31 19:50:00,72.6,15.1,29.91,West,270,10.7,17.0,11,0.00,,SKC,0.00,VWS V14.00,2013-08-01 02:50:00,
2013-07-31 19:52:00,72.4,15.0,29.91,West,270,13.2,14.3,11,0.00,,SKC,0.00,VWS V14.00,2013-08-01 02:52:00,
2013-07-31 19:54:00,72.2,16.8,29.91,West,270,18.1,18.1,12,0.00,,SKC,0.00,VWS V14.00,2013-08-01 02:54:00,
2013-07-31 19:55:00,72.2,16.8,29.91,West,270,18.1,18.1,12,0.00,,SKC,0.00,VWS V14.00,2013-08-01 02:55:00,
2013-07-31 19:57:00,72.0,16.7,29.91,West,270,16.3,18.1,12,0.00,,SKC,0.00,VWS V14.00,2013-08-01 02:57:00,
2013-07-31 19:59:00,71.9,16.5,29.91,West,270,15.4,18.1,12,0.00,,SKC,0.00,VWS V14.00,2013-08-01 02:59:00,
2013-07-31 20:00:00,71.9,16.5,29.91,West,270,15.4,18.1,12,0.00,,SKC,0.00,VWS V14.00,2013-08-01 03:00:00,
2013-07-31 20:02:00,71.5,16.3,29.91,West,270,13.0,15.4,12,0.00,,SKC,0.00,VWS V14.00,2013-08-01 03:02:00,
2013-07-31 20:05:00,71.3,16.1,29.91,West,270,12.1,17.7,12,0.00,,SKC,0.00,VWS V14.00,2013-08-01 03:05:00,
2013-07-31 20:08:00,71.1,16.0,29.91,WNW,292,13.6,16.6,12,0.00,,SKC,0.00,VWS V14.00,2013-08-01 03:08:00,
2013-07-31 20:10:00,71.0,15.8,29.91,West,270,10.5,16.6,12,0.00,,SKC,0.00,VWS V14.00,2013-08-01 03:10:00,
2013-07-31 20:13:00,71.0,15.8,29.91,West,270,8.1,15.4,12,0.00,,SKC,0.00,VWS V14.00,2013-08-01 03:13:00,
2013-07-31 20:15:00,71.0,15.8,29.91,West,270,12.5,15.4,12,0.00,,SKC,0.00,VWS V14.00,2013-08-01 03:15:00,
2013-07-31 20:18:00,70.4,15.4,29.91,WNW,292,11.0,17.7,12,0.00,,SKC,0.00,VWS V14.00,2013-08-01 03:18:00,
2013-07-31 20:20:00,70.2,15.3,29.91,West,270,10.1,17.7,12,0.00,,SKC,0.00,VWS V14.00,2013-08-01 03:20:00,
2013-07-31 20:21:00,70.2,15.3,29.91,West,270,10.1,17.7,12,0.00,,SKC,0.00,VWS V14.00,2013-08-01 03:21:00,
2013-07-31 20:24:00,70.1,15.1,29.91,West,270,12.3,17.7,12,0.00,,SKC,0.00,VWS V14.00,2013-08-01 03:24:00,
2013-07-31 20:25:00,70.1,15.1,29.91,West,270,12.3,17.7,12,0.00,,SKC,0.00,VWS V14.00,2013-08-01 03:25:00,
2013-07-31 20:26:00,70.1,15.1,29.91,WSW,248,13.0,14.8,12,0.00,,SKC,0.00,VWS V14.00,2013-08-01 03:26:00,
2013-07-31 20:29:00,69.7,14.9,29.91,West,270,11.4,16.6,12,0.00,,SKC,0.00,VWS V14.00,2013-08-01 03:29:00,
2013-07-31 20:30:00,69.7,14.9,29.91,West,270,15.4,16.6,12,0.00,,SKC,0.00,VWS V14.00,2013-08-01 03:30:00,
2013-07-31 20:31:00,69.7,14.9,29.91,West,270,15.4,16.6,12,0.00,,SKC,0.00,VWS V14.00,2013-08-01 03:31:00,
2013-07-31 20:34:00,69.5,14.7,29.91,West,270,12.5,17.5,12,0.00,,SKC,0.00,VWS V14.00,2013-08-01 03:34:00,
2013-07-31 20:35:00,69.5,14.7,29.91,West,270,12.8,17.5,12,0.00,,SKC,0.00,VWS V14.00,2013-08-01 03:35:00,
2013-07-31 20:37:00,69.3,14.6,29.91,West,270,13.2,13.2,12,0.00,,SKC,0.00,VWS V14.00,2013-08-01 03:37:00,
2013-07-31 20:39:00,69.3,14.6,29.91,West,270,17.0,17.0,12,0.00,,SKC,0.00,VWS V14.00,2013-08-01 03:39:00,
2013-07-31 20:40:00,69.3,14.6,29.91,West,270,17.7,17.7,12,0.00,,SKC,0.00,VWS V14.00,2013-08-01 03:40:00,
2013-07-31 20:41:00,69.3,14.6,29.91,WNW,292,12.5,17.7,12,0.00,,SKC,0.00,VWS V14.00,2013-08-01 03:41:00,
2013-07-31 20:42:00,69.3,14.6,29.91,West,270,12.3,17.7,12,0.00,,SKC,0.00,VWS V14.00,2013-08-01 03:42:00,
2013-07-31 20:44:00,69.2,14.4,29.91,West,270,15.4,17.9,12,0.00,,SKC,0.00,VWS V14.00,2013-08-01 03:44:00,
2013-07-31 20:45:00,69.2,14.4,29.91,West,270,13.0,17.9,12,0.00,,SKC,0.00,VWS V14.00,2013-08-01 03:45:00,
2013-07-31 20:47:00,69.2,14.4,29.91,WSW,248,10.7,17.9,12,0.00,,SKC,0.00,VWS V14.00,2013-08-01 03:47:00,
2013-07-31 20:48:00,69.0,14.3,29.91,West,270,13.0,17.9,12,0.00,,SKC,0.00,VWS V14.00,2013-08-01 03:48:00,
2013-07-31 20:49:00,69.0,14.3,29.91,West,270,13.0,17.9,12,0.00,,SKC,0.00,VWS V14.00,2013-08-01 03:49:00,
2013-07-31 20:50:00,69.0,14.3,29.91,West,270,13.4,17.9,12,0.00,,SKC,0.00,VWS V14.00,2013-08-01 03:50:00,
2013-07-31 20:51:00,69.0,14.3,29.91,West,270,13.4,13.4,12,0.00,,SKC,0.00,VWS V14.00,2013-08-01 03:51:00,
2013-07-31 20:52:00,69.0,14.3,29.91,West,270,13.2,13.4,12,0.00,,SKC,0.00,VWS V14.00,2013-08-01 03:52:00,
2013-07-31 20:53:00,69.0,14.3,29.91,West,270,13.2,13.4,12,0.00,,SKC,0.00,VWS V14.00,2013-08-01 03:53:00,
2013-07-31 20:55:00,68.6,15.8,29.91,WNW,292,8.1,13.4,13,0.00,,SKC,0.00,VWS V14.00,2013-08-01 03:55:00,
2013-07-31 20:56:00,68.6,15.8,29.91,WNW,292,8.1,13.4,13,0.00,,SKC,0.00,VWS V14.00,2013-08-01 03:56:00,
2013-07-31 20:57:00,68.4,15.7,29.91,West,270,9.8,13.0,13,0.00,,SKC,0.00,VWS V14.00,2013-08-01 03:57:00,
2013-07-31 20:58:00,68.4,15.7,29.91,West,270,7.8,13.0,13,0.00,,SKC,0.00,VWS V14.00,2013-08-01 03:58:00,
2013-07-31 21:00:00,68.4,15.7,29.91,West,270,12.8,13.0,13,0.00,,SKC,0.00,VWS V14.00,2013-08-01 04:00:00,
2013-07-31 21:01:00,68.4,15.7,29.91,West,270,12.8,13.0,13,0.00,,SKC,0.00,VWS V14.00,2013-08-01 04:01:00,
2013-07-31 21:02:00,68.3,15.6,29.91,West,270,12.1,12.1,13,0.00,,SKC,0.00,VWS V14.00,2013-08-01 04:02:00,
2013-07-31 21:05:00,68.1,15.4,29.91,WNW,292,11.4,14.5,13,0.00,,SKC,0.00,VWS V14.00,2013-08-01 04:05:00,
2013-07-31 21:06:00,68.1,15.4,29.91,West,270,12.8,12.8,13,0.00,,SKC,0.00,VWS V14.00,2013-08-01 04:06:00,
2013-07-31 21:07:00,68.1,15.4,29.91,West,270,8.7,12.8,13,0.00,,SKC,0.00,VWS V14.00,2013-08-01 04:07:00,
2013-07-31 21:10:00,67.9,15.3,29.91,WSW,248,10.3,12.8,13,0.00,,SKC,0.00,VWS V14.00,2013-08-01 04:10:00,
2013-07-31 21:11:00,67.9,15.3,29.91,WNW,292,7.8,10.3,13,0.00,,SKC,0.00,VWS V14.00,2013-08-01 04:11:00,
2013-07-31 21:12:00,67.7,15.1,29.91,WNW,292,8.7,10.3,13,0.00,,SKC,0.00,VWS V14.00,2013-08-01 04:12:00,
2013-07-31 21:13:00,67.7,15.1,29.91,NW,315,9.4,13.2,13,0.00,,SKC,0.00,VWS V14.00,2013-08-01 04:13:00,
2013-07-31 21:15:00,67.5,15.0,29.94,WNW,292,11.0,13.2,13,0.00,,SKC,0.00,VWS V14.00,2013-08-01 04:15:00,
2013-07-31 21:16:00,67.5,15.0,29.94,WNW,292,10.7,11.0,13,0.00,,SKC,0.00,VWS V14.00,2013-08-01 04:16:00,
2013-07-31 21:17:00,67.5,15.0,29.94,West,270,8.5,14.8,13,0.00,,SKC,0.00,VWS V14.00,2013-08-01 04:17:00,
2013-07-31 21:18:00,67.5,15.0,29.94,WNW,292,11.0,14.8,13,0.00,,SKC,0.00,VWS V14.00,2013-08-01 04:18:00,
2013-07-31 21:19:00,67.5,15.0,29.94,WNW,292,12.3,15.4,13,0.00,,SKC,0.00,VWS V14.00,2013-08-01 04:19:00,
2013-07-31 21:20:00,67.5,15.0,29.94,WNW,292,10.5,15.4,13,0.00,,SKC,0.00,VWS V14.00,2013-08-01 04:20:00,
2013-07-31 21:22:00,67.5,15.0,29.94,West,270,14.8,14.8,13,0.00,,SKC,0.00,VWS V14.00,2013-08-01 04:22:00,
2013-07-31 21:23:00,67.5,15.0,29.94,West,270,11.9,14.8,13,0.00,,SKC,0.00,VWS V14.00,2013-08-01 04:23:00,
2013-07-31 21:24:00,67.4,14.9,29.94,West,270,13.0,14.8,13,0.00,,SKC,0.00,VWS V14.00,2013-08-01 04:24:00,
2013-07-31 21:25:00,67.4,14.9,29.94,WNW,292,9.6,14.8,13,0.00,,SKC,0.00,VWS V14.00,2013-08-01 04:25:00,
2013-07-31 21:27:00,67.4,14.9,29.94,WNW,292,10.1,10.1,13,0.00,,SKC,0.00,VWS V14.00,2013-08-01 04:27:00,
2013-07-31 21:28:00,67.2,14.7,29.94,WNW,292,7.6,10.1,13,0.00,,SKC,0.00,VWS V14.00,2013-08-01 04:28:00,
2013-07-31 21:29:00,67.0,14.6,29.94,West,270,8.7,10.1,13,0.00,,SKC,0.00,VWS V14.00,2013-08-01 04:29:00,
2013-07-31 21:32:00,67.2,14.7,29.94,WNW,292,12.3,17.5,13,0.00,,SKC,0.00,VWS V14.00,2013-08-01 04:32:00,
2013-07-31 21:33:00,67.2,14.7,29.94,WNW,292,10.5,17.5,13,0.00,,SKC,0.00,VWS V14.00,2013-08-01 04:33:00,
2013-07-31 21:34:00,67.0,14.6,29.94,WNW,292,10.3,17.5,13,0.00,,SKC,0.00,VWS V14.00,2013-08-01 04:34:00,
2013-07-31 21:35:00,66.8,14.4,29.94,WNW,292,7.6,17.5,13,0.00,,SKC,0.00,VWS V14.00,2013-08-01 04:35:00,
2013-07-31 21:37:00,66.6,14.3,29.94,WNW,292,6.0,8.7,13,0.00,,SKC,0.00,VWS V14.00,2013-08-01 04:37:00,
2013-07-31 21:38:00,66.6,14.3,29.94,NW,315,4.9,8.7,13,0.00,,SKC,0.00,VWS V14.00,2013-08-01 04:38:00,
2013-07-31 21:40:00,66.3,14.0,29.94,WNW,292,12.1,12.1,13,0.00,,SKC,0.00,VWS V14.00,2013-08-01 04:40:00,
2013-07-31 21:42:00,66.5,14.1,29.94,West,270,15.4,15.4,13,0.00,,SKC,0.00,VWS V14.00,2013-08-01 04:42:00,
2013-07-31 21:43:00,66.5,14.1,29.94,WNW,292,13.0,15.4,13,0.00,,SKC,0.00,VWS V14.00,2013-08-01 04:43:00,
2013-07-31 21:44:00,66.5,14.1,29.94,NW,315,7.6,15.4,13,0.00,,SKC,0.00,VWS V14.00,2013-08-01 04:44:00,
2013-07-31 21:45:00,66.3,14.0,29.94,West,270,6.0,15.4,13,0.00,,SKC,0.00,VWS V14.00,2013-08-01 04:45:00,
2013-07-31 21:47:00,66.1,13.9,29.94,NW,315,9.8,9.8,13,0.00,,SKC,0.00,VWS V14.00,2013-08-01 04:47:00,
2013-07-31 21:48:00,66.1,13.9,29.94,WNW,292,7.8,10.5,13,0.00,,SKC,0.00,VWS V14.00,2013-08-01 04:48:00,
2013-07-31 21:49:00,66.1,13.9,29.94,WNW,292,10.3,10.5,13,0.00,,SKC,0.00,VWS V14.00,2013-08-01 04:49:00,
2013-07-31 21:50:00,65.9,13.7,29.94,WNW,292,9.4,10.5,13,0.00,,SKC,0.00,VWS V14.00,2013-08-01 04:50:00,
2013-07-31 21:52:00,65.9,13.7,29.94,WNW,292,10.7,10.7,13,0.00,,SKC,0.00,VWS V14.00,2013-08-01 04:52:00,
2013-07-31 21:53:00,65.9,13.7,29.94,WNW,292,9.6,10.7,13,0.00,,SKC,0.00,VWS V14.00,2013-08-01 04:53:00,
2013-07-31 21:54:00,65.9,13.7,29.94,WNW,292,10.7,12.5,13,0.00,,SKC,0.00,VWS V14.00,2013-08-01 04:54:00,
2013-07-31 21:55:00,65.9,13.7,29.94,WNW,292,10.7,12.5,13,0.00,,SKC,0.00,VWS V14.00,2013-08-01 04:55:00,
2013-07-31 21:57:00,65.9,13.7,29.94,WNW,292,11.0,11.0,13,0.00,,SKC,0.00,VWS V14.00,2013-08-01 04:57:00,
2013-07-31 21:58:00,65.9,13.7,29.94,NW,315,9.6,11.0,13,0.00,,SKC,0.00,VWS V14.00,2013-08-01 04:58:00,
2013-07-31 22:00:00,65.9,13.7,29.91,WNW,292,10.5,11.2,13,0.00,,SKC,0.00,VWS V14.00,2013-08-01 05:00:00,
2013-07-31 22:02:00,65.9,13.7,29.91,West,270,5.6,11.2,13,0.00,,SKC,0.00,VWS V14.00,2013-08-01 05:02:00,
2013-07-31 22:04:00,65.9,13.7,29.91,WNW,292,6.0,11.2,13,0.00,,SKC,0.00,VWS V14.00,2013-08-01 05:04:00,
2013-07-31 22:05:00,65.9,13.7,29.91,WNW,292,6.0,11.2,13,0.00,,SKC,0.00,VWS V14.00,2013-08-01 05:05:00,
2013-07-31 22:08:00,65.4,13.3,29.91,WNW,292,11.9,11.9,13,0.00,,SKC,0.00,VWS V14.00,2013-08-01 05:08:00,
2013-07-31 22:09:00,65.4,13.3,29.91,West,270,10.1,11.9,13,0.00,,SKC,0.00,VWS V14.00,2013-08-01 05:09:00,
2013-07-31 22:10:00,65.4,13.3,29.91,West,270,7.8,11.9,13,0.00,,SKC,0.00,VWS V14.00,2013-08-01 05:10:00,
2013-07-31 22:11:00,65.4,13.3,29.91,West,270,11.9,11.9,13,0.00,,SKC,0.00,VWS V14.00,2013-08-01 05:11:00,
2013-07-31 22:13:00,65.4,13.3,29.91,West,270,11.9,11.9,13,0.00,,SKC,0.00,VWS V14.00,2013-08-01 05:13:00,
2013-07-31 22:14:00,65.2,13.1,29.94,West,270,8.1,11.9,13,0.00,,SKC,0.00,VWS V14.00,2013-08-01 05:14:00,
2013-07-31 22:15:00,65.2,13.1,29.94,West,270,10.1,12.3,13,0.00,,SKC,0.00,VWS V14.00,2013-08-01 05:15:00,
2013-07-31 22:16:00,65.2,13.1,29.94,West,270,10.7,12.3,13,0.00,,SKC,0.00,VWS V14.00,2013-08-01 05:16:00,
2013-07-31 22:18:00,65.2,13.1,29.94,West,270,12.1,12.3,13,0.00,,SKC,0.00,VWS V14.00,2013-08-01 05:18:00,
2013-07-31 22:19:00,65.2,13.1,29.94,West,270,12.1,12.3,13,0.00,,SKC,0.00,VWS V14.00,2013-08-01 05:19:00,
2013-07-31 22:20:00,65.2,13.1,29.94,West,270,9.0,12.3,13,0.00,,SKC,0.00,VWS V14.00,2013-08-01 05:20:00,
2013-07-31 22:21:00,65.2,13.1,29.94,West,270,12.5,12.5,13,0.00,,SKC,0.00,VWS V14.00,2013-08-01 05:21:00,
2013-07-31 22:23:00,65.0,13.0,29.94,West,270,11.0,13.0,13,0.00,,SKC,0.00,VWS V14.00,2013-08-01 05:23:00,
2013-07-31 22:24:00,65.0,13.0,29.94,WNW,292,10.1,13.0,13,0.00,,SKC,0.00,VWS V14.00,2013-08-01 05:24:00,
2013-07-31 22:26:00,65.0,13.0,29.94,WNW,292,9.2,13.0,13,0.00,,SKC,0.00,VWS V14.00,2013-08-01 05:26:00,
2013-07-31 22:28:00,64.8,12.9,29.94,West,270,10.3,13.0,13,0.00,,SKC,0.00,VWS V14.00,2013-08-01 05:28:00,
2013-07-31 22:29:00,64.7,12.7,29.91,WNW,292,8.7,13.0,13,0.00,,SKC,0.00,VWS V14.00,2013-08-01 05:29:00,
2013-07-31 22:30:00,64.7,12.7,29.91,WNW,292,13.0,13.2,13,0.00,,SKC,0.00,VWS V14.00,2013-08-01 05:30:00,
2013-07-31 22:31:00,64.7,12.7,29.91,West,270,12.5,13.0,13,0.00,,SKC,0.00,VWS V14.00,2013-08-01 05:31:00,
2013-07-31 22:32:00,64.7,12.7,29.91,WSW,248,11.2,13.0,13,0.00,,SKC,0.00,VWS V14.00,2013-08-01 05:32:00,
2013-07-31 22:33:00,64.5,12.6,29.91,WNW,292,12.3,13.0,13,0.00,,SKC,0.00,VWS V14.00,2013-08-01 05:33:00,
2013-07-31 22:34:00,64.5,12.6,29.91,West,270,8.5,13.2,13,0.00,,SKC,0.00,VWS V14.00,2013-08-01 05:34:00,
2013-07-31 22:35:00,64.5,12.6,29.91,West,270,12.5,13.2,13,0.00,,SKC,0.00,VWS V14.00,2013-08-01 05:35:00,
2013-07-31 22:37:00,64.5,12.6,29.91,West,270,6.7,12.5,13,0.00,,SKC,0.00,VWS V14.00,2013-08-01 05:37:00,
2013-07-31 22:38:00,64.3,12.4,29.91,West,270,7.4,12.5,13,0.00,,SKC,0.00,VWS V14.00,2013-08-01 05:38:00,
2013-07-31 22:39:00,64.1,12.3,29.91,WNW,292,10.5,12.5,13,0.00,,SKC,0.00,VWS V14.00,2013-08-01 05:39:00,
2013-07-31 22:42:00,64.1,12.3,29.91,West,270,8.1,12.5,13,0.00,,SKC,0.00,VWS V14.00,2013-08-01 05:42:00,
2013-07-31 22:43:00,63.9,12.1,29.91,West,270,8.1,12.5,13,0.00,,SKC,0.00,VWS V14.00,2013-08-01 05:43:00,
2013-07-31 22:44:00,63.9,12.1,29.94,WNW,292,12.3,12.5,13,0.00,,SKC,0.00,VWS V14.00,2013-08-01 05:44:00,
2013-07-31 22:45:00,63.9,12.1,29.94,West,270,11.9,12.5,13,0.00,,SKC,0.00,VWS V14.00,2013-08-01 05:45:00,
2013-07-31 22:47:00,63.8,12.0,29.94,WNW,292,6.3,11.9,13,0.00,,SKC,0.00,VWS V14.00,2013-08-01 05:47:00,
2013-07-31 22:48:00,63.8,12.0,29.94,WNW,292,10.7,11.9,13,0.00,,SKC,0.00,VWS V14.00,2013-08-01 05:48:00,
2013-07-31 22:49:00,63.6,11.9,29.94,WNW,292,8.5,11.9,13,0.00,,SKC,0.00,VWS V14.00,2013-08-01 05:49:00,
2013-07-31 22:50:00,63.6,11.9,29.94,West,270,7.6,11.9,13,0.00,,SKC,0.00,VWS V14.00,2013-08-01 05:50:00,
2013-07-31 22:52:00,63.4,11.7,29.94,WNW,292,6.5,8.1,13,0.00,,SKC,0.00,VWS V14.00,2013-08-01 05:52:00,
2013-07-31 22:53:00,63.4,11.7,29.94,WNW,292,7.6,9.2,13,0.00,,SKC,0.00,VWS V14.00,2013-08-01 05:53:00,
2013-07-31 22:55:00,63.4,11.7,29.94,NW,315,7.8,10.3,13,0.00,,SKC,0.00,VWS V14.00,2013-08-01 05:55:00,
2013-07-31 22:57:00,63.2,13.3,29.94,WNW,292,6.3,7.6,14,0.00,,SKC,0.00,VWS V14.00,2013-08-01 05:57:00,
2013-07-31 22:58:00,63.2,13.3,29.94,WNW,292,9.6,9.6,14,0.00,,SKC,0.00,VWS V14.00,2013-08-01 05:58:00,
2013-07-31 23:00:00,63.0,13.1,29.94,WNW,292,10.3,10.3,14,0.00,,SKC,0.00,VWS V14.00,2013-08-01 06:00:00,
2013-07-31 23:02:00,63.0,13.1,29.94,NW,315,6.3,10.3,14,0.00,,SKC,0.00,VWS V14.00,2013-08-01 06:02:00,
2013-07-31 23:03:00,63.0,13.1,29.94,NW,315,6.3,10.3,14,0.00,,SKC,0.00,VWS V14.00,2013-08-01 06:03:00,
2013-07-31 23:05:00,62.7,12.8,29.94,WNW,292,6.0,10.3,14,0.00,,SKC,0.00,VWS V14.00,2013-08-01 06:05:00,
2013-07-31 23:07:00,62.7,12.8,29.94,WNW,292,6.5,7.8,14,0.00,,SKC,0.00,VWS V14.00,2013-08-01 06:07:00,
2013-07-31 23:08:00,62.7,12.8,29.94,West,270,7.8,7.8,14,0.00,,SKC,0.00,VWS V14.00,2013-08-01 06:08:00,
2013-07-31 23:10:00,62.5,12.7,29.94,WNW,292,5.8,8.7,14,0.00,,SKC,0.00,VWS V14.00,2013-08-01 06:10:00,
2013-07-31 23:13:00,62.5,12.7,29.94,NW,315,9.4,9.4,14,0.00,,SKC,0.00,VWS V14.00,2013-08-01 06:13:00,
2013-07-31 23:15:00,62.1,12.4,29.94,NW,315,5.8,9.4,14,0.00,,SKC,0.00,VWS V14.00,2013-08-01 06:15:00,
2013-07-31 23:16:00,62.1,12.4,29.94,NW,315,5.8,9.4,14,0.00,,SKC,0.00,VWS V14.00,2013-08-01 06:16:00,
2013-07-31 23:18:00,62.0,12.2,29.94,WNW,292,6.5,6.5,14,0.00,,SKC,0.00,VWS V14.00,2013-08-01 06:18:00,
2013-07-31 23:19:00,62.0,12.2,29.94,WNW,292,6.5,6.5,14,0.00,,SKC,0.00,VWS V14.00,2013-08-01 06:19:00,
2013-07-31 23:20:00,62.0,12.2,29.94,WNW,292,5.4,6.5,14,0.00,,SKC,0.00,VWS V14.00,2013-08-01 06:20:00,
2013-07-31 23:21:00,62.0,12.2,29.94,WNW,292,6.0,6.0,14,0.00,,SKC,0.00,VWS V14.00,2013-08-01 06:21:00,
2013-07-31 23:23:00,61.8,12.1,29.94,WNW,292,5.4,6.5,14,0.00,,SKC,0.00,VWS V14.00,2013-08-01 06:23:00,
2013-07-31 23:24:00,61.6,12.0,29.94,NW,315,3.8,6.5,14,0.00,,SKC,0.00,VWS V14.00,2013-08-01 06:24:00,
2013-07-31 23:25:00,61.6,12.0,29.94,NW,315,3.6,6.5,14,0.00,,SKC,0.00,VWS V14.00,2013-08-01 06:25:00,
2013-07-31 23:26:00,61.6,12.0,29.94,WNW,292,3.8,5.8,14,0.00,,SKC,0.00,VWS V14.00,2013-08-01 06:26:00,
2013-07-31 23:28:00,61.4,11.8,29.94,NW,315,6.0,6.3,14,0.00,,SKC,0.00,VWS V14.00,2013-08-01 06:28:00,
2013-07-31 23:29:00,61.8,12.1,29.94,West,270,6.0,6.3,14,0.00,,SKC,0.00,VWS V14.00,2013-08-01 06:29:00,
2013-07-31 23:30:00,61.8,12.1,29.94,WNW,292,5.8,10.7,14,0.00,,SKC,0.00,VWS V14.00,2013-08-01 06:30:00,
2013-07-31 23:31:00,61.8,12.1,29.94,WNW,292,6.3,6.3,14,0.00,,SKC,0.00,VWS V14.00,2013-08-01 06:31:00,
2013-07-31 23:34:00,62.0,12.2,29.94,West,270,8.5,12.5,14,0.00,,SKC,0.00,VWS V14.00,2013-08-01 06:34:00,
2013-07-31 23:35:00,62.0,12.2,29.94,WNW,292,8.5,12.8,14,0.00,,SKC,0.00,VWS V14.00,2013-08-01 06:35:00,
2013-07-31 23:36:00,62.0,12.2,29.94,WNW,292,9.0,9.0,14,0.00,,SKC,0.00,VWS V14.00,2013-08-01 06:36:00,
2013-07-31 23:39:00,62.0,12.2,29.94,West,270,9.8,11.0,14,0.00,,SKC,0.00,VWS V14.00,2013-08-01 06:39:00,
2013-07-31 23:40:00,62.0,12.2,29.94,West,270,8.5,11.0,14,0.00,,SKC,0.00,VWS V14.00,2013-08-01 06:40:00,
2013-07-31 23:41:00,62.0,12.2,29.94,WNW,292,11.0,11.0,14,0.00,,SKC,0.00,VWS V14.00,2013-08-01 06:41:00,
2013-07-31 23:44:00,62.0,12.2,29.94,West,270,7.6,11.0,14,0.00,,SKC,0.00,VWS V14.00,2013-08-01 06:44:00,
2013-07-31 23:45:00,62.0,12.2,29.94,WNW,292,6.5,11.0,14,0.00,,SKC,0.00,VWS V14.00,2013-08-01 06:45:00,
2013-07-31 23:46:00,61.8,12.1,29.94,West,270,6.9,7.6,14,0.00,,SKC,0.00,VWS V14.00,2013-08-01 06:46:00,
2013-07-31 23:47:00,61.8,12.1,29.94,WNW,292,10.7,10.7,14,0.00,,SKC,0.00,VWS V14.00,2013-08-01 06:47:00,
2013-07-31 23:49:00,61.8,12.1,29.94,WNW,292,11.0,11.0,14,0.00,,SKC,0.00,VWS V14.00,2013-08-01 06:49:00,
2013-07-31 23:50:00,61.8,12.1,29.94,WNW,292,7.6,11.0,14,0.00,,SKC,0.00,VWS V14.00,2013-08-01 06:50:00,
2013-07-31 23:51:00,61.8,12.1,29.94,WNW,292,7.6,11.0,14,0.00,,SKC,0.00,VWS V14.00,2013-08-01 06:51:00,
2013-07-31 23:52:00,61.8,12.1,29.94,WNW,292,6.5,8.1,14,0.00,,SKC,0.00,VWS V14.00,2013-08-01 06:52:00,
2013-07-31 23:54:00,61.6,12.0,29.94,WNW,292,5.4,8.1,14,0.00,,SKC,0.00,VWS V14.00,2013-08-01 06:54:00,
2013-07-31 23:55:00,61.6,12.0,29.94,West,270,5.4,8.1,14,0.00,,SKC,0.00,VWS V14.00,2013-08-01 06:55:00,
2013-07-31 23:56:00,61.4,11.8,29.94,WNW,292,7.6,7.6,14,0.00,,SKC,0.00,VWS V14.00,2013-08-01 06:56:00,
2013-07-31 23:57:00,61.4,11.8,29.94,West,270,6.5,7.6,14,0.00,,SKC,0.00,VWS V14.00,2013-08-01 06:57:00,
2013-07-31 23:59:00,61.4,11.8,29.94,West,270,4.5,7.6,14,0.00,,SKC,0.00,VWS V14.00,2013-08-01 06:59:00,